<?xml version="1.0" encoding="UTF-8" standalone="no" ?>
<gpx xmlns="http://www.topografix.com/GPX/1/1" xmlns:xsi="http://www.w3.org/2001/XMLSchema-instance" xsi:schemaLocation="http://www.topografix.com/GPX/1/1 http://www.topografix.com/GPX/1/1/gpx.xsd" version="1.1" creator="VisuGPX - https://www.visugpx.com">
  <metadata>
    <name>Etape 20 Coll d'Ares-Prats de Mollo partie 2</name>
    <desc><![CDATA[D+  208m     D-  929m    13km]]></desc>
  </metadata>
  <trk>
    <name><![CDATA[Tour de Mir vtt robert]]></name>
    <trkseg>
      <trkpt lat="42.37466" lon="2.46193">
        <ele>1464.227</ele>
        <time>2014-05-31T10:28:57Z</time>
      </trkpt>
      <trkpt lat="42.37478" lon="2.46161">
        <ele>1465.741</ele>
        <time>2014-05-31T10:29:11Z</time>
      </trkpt>
      <trkpt lat="42.37475" lon="2.46148">
        <ele>1465.781</ele>
        <time>2014-05-31T10:29:23Z</time>
      </trkpt>
      <trkpt lat="42.37471" lon="2.46151">
        <ele>1465.209</ele>
        <time>2014-05-31T10:30:00Z</time>
      </trkpt>
      <trkpt lat="42.37476" lon="2.4615">
        <ele>1465.208</ele>
        <time>2014-05-31T10:30:44Z</time>
      </trkpt>
      <trkpt lat="42.37471" lon="2.4615">
        <ele>1465.288</ele>
        <time>2014-05-31T10:31:24Z</time>
      </trkpt>
      <trkpt lat="42.37473" lon="2.46155">
        <ele>1465.281</ele>
        <time>2014-05-31T10:32:11Z</time>
      </trkpt>
      <trkpt lat="42.37476" lon="2.46143">
        <ele>1466.673</ele>
        <time>2014-05-31T10:32:24Z</time>
      </trkpt>
      <trkpt lat="42.37478" lon="2.4614">
        <ele>1465.733</ele>
        <time>2014-05-31T10:33:08Z</time>
      </trkpt>
      <trkpt lat="42.37477" lon="2.46139">
        <ele>1465.249</ele>
        <time>2014-05-31T10:33:48Z</time>
      </trkpt>
      <trkpt lat="42.37478" lon="2.46139">
        <ele>1465.718</ele>
        <time>2014-05-31T10:34:23Z</time>
      </trkpt>
      <trkpt lat="42.37474" lon="2.4614">
        <ele>1466.284</ele>
        <time>2014-05-31T10:35:09Z</time>
      </trkpt>
      <trkpt lat="42.37479" lon="2.46142">
        <ele>1465.76</ele>
        <time>2014-05-31T10:35:52Z</time>
      </trkpt>
      <trkpt lat="42.37476" lon="2.46143">
        <ele>1465.237</ele>
        <time>2014-05-31T10:36:10Z</time>
      </trkpt>
      <trkpt lat="42.37476" lon="2.46142">
        <ele>1467.149</ele>
        <time>2014-05-31T10:36:13Z</time>
      </trkpt>
      <trkpt lat="42.37478" lon="2.46142">
        <ele>1466.213</ele>
        <time>2014-05-31T10:36:31Z</time>
      </trkpt>
      <trkpt lat="42.37487" lon="2.46137">
        <ele>1466.208</ele>
        <time>2014-05-31T10:36:37Z</time>
      </trkpt>
      <trkpt lat="42.37497" lon="2.46129">
        <ele>1467.687</ele>
        <time>2014-05-31T10:36:43Z</time>
      </trkpt>
      <trkpt lat="42.37514" lon="2.46112">
        <ele>1468.63</ele>
        <time>2014-05-31T10:36:53Z</time>
      </trkpt>
      <trkpt lat="42.37519" lon="2.46106">
        <ele>1469.552</ele>
        <time>2014-05-31T10:36:57Z</time>
      </trkpt>
      <trkpt lat="42.3754" lon="2.46082">
        <ele>1471.432</ele>
        <time>2014-05-31T10:37:11Z</time>
      </trkpt>
      <trkpt lat="42.37555" lon="2.46062">
        <ele>1471.918</ele>
        <time>2014-05-31T10:37:23Z</time>
      </trkpt>
      <trkpt lat="42.37575" lon="2.46041">
        <ele>1473.457</ele>
        <time>2014-05-31T10:37:37Z</time>
      </trkpt>
      <trkpt lat="42.37586" lon="2.46027">
        <ele>1473.823</ele>
        <time>2014-05-31T10:37:43Z</time>
      </trkpt>
      <trkpt lat="42.37606" lon="2.45996">
        <ele>1474.819</ele>
        <time>2014-05-31T10:37:55Z</time>
      </trkpt>
      <trkpt lat="42.37619" lon="2.45947">
        <ele>1476.211</ele>
        <time>2014-05-31T10:38:08Z</time>
      </trkpt>
      <trkpt lat="42.37629" lon="2.45916">
        <ele>1478.721</ele>
        <time>2014-05-31T10:38:17Z</time>
      </trkpt>
      <trkpt lat="42.37635" lon="2.45881">
        <ele>1479.603</ele>
        <time>2014-05-31T10:38:25Z</time>
      </trkpt>
      <trkpt lat="42.37648" lon="2.45842">
        <ele>1481.508</ele>
        <time>2014-05-31T10:38:35Z</time>
      </trkpt>
      <trkpt lat="42.3765" lon="2.45798">
        <ele>1483.935</ele>
        <time>2014-05-31T10:38:45Z</time>
      </trkpt>
      <trkpt lat="42.37643" lon="2.4574">
        <ele>1486.368</ele>
        <time>2014-05-31T10:38:59Z</time>
      </trkpt>
      <trkpt lat="42.37627" lon="2.45709">
        <ele>1488.34</ele>
        <time>2014-05-31T10:39:09Z</time>
      </trkpt>
      <trkpt lat="42.37599" lon="2.45677">
        <ele>1490.27</ele>
        <time>2014-05-31T10:39:21Z</time>
      </trkpt>
      <trkpt lat="42.3757" lon="2.45659">
        <ele>1492.666</ele>
        <time>2014-05-31T10:39:33Z</time>
      </trkpt>
      <trkpt lat="42.3753" lon="2.45652">
        <ele>1494.515</ele>
        <time>2014-05-31T10:39:47Z</time>
      </trkpt>
      <trkpt lat="42.37502" lon="2.45647">
        <ele>1495.981</ele>
        <time>2014-05-31T10:39:57Z</time>
      </trkpt>
      <trkpt lat="42.37474" lon="2.4565">
        <ele>1497.967</ele>
        <time>2014-05-31T10:40:07Z</time>
      </trkpt>
      <trkpt lat="42.37461" lon="2.4565">
        <ele>1498.877</ele>
        <time>2014-05-31T10:40:13Z</time>
      </trkpt>
      <trkpt lat="42.37445" lon="2.45652">
        <ele>1499.861</ele>
        <time>2014-05-31T10:40:21Z</time>
      </trkpt>
      <trkpt lat="42.37441" lon="2.45655">
        <ele>1500.327</ele>
        <time>2014-05-31T10:40:25Z</time>
      </trkpt>
      <trkpt lat="42.37418" lon="2.45651">
        <ele>1501.708</ele>
        <time>2014-05-31T10:40:37Z</time>
      </trkpt>
      <trkpt lat="42.37403" lon="2.45642">
        <ele>1502.281</ele>
        <time>2014-05-31T10:40:43Z</time>
      </trkpt>
      <trkpt lat="42.37389" lon="2.45634">
        <ele>1502.224</ele>
        <time>2014-05-31T10:40:56Z</time>
      </trkpt>
      <trkpt lat="42.37384" lon="2.4563">
        <ele>1501.736</ele>
        <time>2014-05-31T10:41:09Z</time>
      </trkpt>
      <trkpt lat="42.37372" lon="2.45621">
        <ele>1502.296</ele>
        <time>2014-05-31T10:41:18Z</time>
      </trkpt>
      <trkpt lat="42.3736" lon="2.45615">
        <ele>1503.672</ele>
        <time>2014-05-31T10:41:25Z</time>
      </trkpt>
      <trkpt lat="42.37341" lon="2.45607">
        <ele>1503.661</ele>
        <time>2014-05-31T10:41:36Z</time>
      </trkpt>
      <trkpt lat="42.37336" lon="2.45584">
        <ele>1503.247</ele>
        <time>2014-05-31T10:41:49Z</time>
      </trkpt>
      <trkpt lat="42.37337" lon="2.45584">
        <ele>1503.643</ele>
        <time>2014-05-31T10:41:59Z</time>
      </trkpt>
      <trkpt lat="42.37336" lon="2.45578">
        <ele>1502.782</ele>
        <time>2014-05-31T10:42:10Z</time>
      </trkpt>
      <trkpt lat="42.37336" lon="2.45578">
        <ele>1502.243</ele>
        <time>2014-05-31T11:10:01Z</time>
      </trkpt>
      <trkpt lat="42.37332" lon="2.45563">
        <ele>1503.217</ele>
        <time>2014-05-31T11:10:25Z</time>
      </trkpt>
      <trkpt lat="42.37332" lon="2.45564">
        <ele>1503.208</ele>
        <time>2014-05-31T11:10:29Z</time>
      </trkpt>
      <trkpt lat="42.37332" lon="2.45562">
        <ele>1503.662</ele>
        <time>2014-05-31T11:10:52Z</time>
      </trkpt>
      <trkpt lat="42.37332" lon="2.45562">
        <ele>1503.295</ele>
        <time>2014-05-31T11:11:11Z</time>
      </trkpt>
      <trkpt lat="42.37332" lon="2.45563">
        <ele>1502.227</ele>
        <time>2014-05-31T11:11:18Z</time>
      </trkpt>
      <trkpt lat="42.37332" lon="2.45563">
        <ele>1505.197</ele>
        <time>2014-05-31T11:11:38Z</time>
      </trkpt>
      <trkpt lat="42.37332" lon="2.45563">
        <ele>1501.713</ele>
        <time>2014-05-31T11:11:39Z</time>
      </trkpt>
      <trkpt lat="42.37332" lon="2.45563">
        <ele>1505.152</ele>
        <time>2014-05-31T11:11:40Z</time>
      </trkpt>
      <trkpt lat="42.3733" lon="2.4556">
        <ele>1501.798</ele>
        <time>2014-05-31T11:11:54Z</time>
      </trkpt>
      <trkpt lat="42.37332" lon="2.45561">
        <ele>1502.224</ele>
        <time>2014-05-31T11:12:19Z</time>
      </trkpt>
      <trkpt lat="42.3733" lon="2.4556">
        <ele>1502.264</ele>
        <time>2014-05-31T11:12:47Z</time>
      </trkpt>
      <trkpt lat="42.37331" lon="2.45562">
        <ele>1502.706</ele>
        <time>2014-05-31T11:13:20Z</time>
      </trkpt>
      <trkpt lat="42.37334" lon="2.45561">
        <ele>1503.216</ele>
        <time>2014-05-31T11:13:47Z</time>
      </trkpt>
      <trkpt lat="42.37335" lon="2.45561">
        <ele>1502.708</ele>
        <time>2014-05-31T11:14:15Z</time>
      </trkpt>
      <trkpt lat="42.37332" lon="2.45559">
        <ele>1503.26</ele>
        <time>2014-05-31T11:14:55Z</time>
      </trkpt>
      <trkpt lat="42.37331" lon="2.4556">
        <ele>1503.623</ele>
        <time>2014-05-31T11:15:27Z</time>
      </trkpt>
      <trkpt lat="42.37336" lon="2.45562">
        <ele>1504.655</ele>
        <time>2014-05-31T11:15:55Z</time>
      </trkpt>
      <trkpt lat="42.37333" lon="2.45558">
        <ele>1504.185</ele>
        <time>2014-05-31T11:16:25Z</time>
      </trkpt>
      <trkpt lat="42.37331" lon="2.45559">
        <ele>1504.631</ele>
        <time>2014-05-31T11:17:12Z</time>
      </trkpt>
      <trkpt lat="42.37333" lon="2.4556">
        <ele>1504.65</ele>
        <time>2014-05-31T11:17:46Z</time>
      </trkpt>
      <trkpt lat="42.37338" lon="2.4556">
        <ele>1505.646</ele>
        <time>2014-05-31T11:18:25Z</time>
      </trkpt>
      <trkpt lat="42.37337" lon="2.4556">
        <ele>1505.162</ele>
        <time>2014-05-31T11:19:00Z</time>
      </trkpt>
      <trkpt lat="42.37337" lon="2.45558">
        <ele>1505.163</ele>
        <time>2014-05-31T11:19:29Z</time>
      </trkpt>
      <trkpt lat="42.37336" lon="2.4556">
        <ele>1504.644</ele>
        <time>2014-05-31T11:20:09Z</time>
      </trkpt>
      <trkpt lat="42.37335" lon="2.4556">
        <ele>1505.618</ele>
        <time>2014-05-31T11:20:41Z</time>
      </trkpt>
      <trkpt lat="42.37335" lon="2.45561">
        <ele>1505.608</ele>
        <time>2014-05-31T11:21:24Z</time>
      </trkpt>
      <trkpt lat="42.37333" lon="2.45561">
        <ele>1506.52</ele>
        <time>2014-05-31T11:21:55Z</time>
      </trkpt>
      <trkpt lat="42.37333" lon="2.4554">
        <ele>1506.583</ele>
        <time>2014-05-31T11:22:03Z</time>
      </trkpt>
      <trkpt lat="42.37334" lon="2.45523">
        <ele>1506.085</ele>
        <time>2014-05-31T11:22:08Z</time>
      </trkpt>
      <trkpt lat="42.37333" lon="2.4551">
        <ele>1506.525</ele>
        <time>2014-05-31T11:22:14Z</time>
      </trkpt>
      <trkpt lat="42.37331" lon="2.45486">
        <ele>1507.011</ele>
        <time>2014-05-31T11:22:21Z</time>
      </trkpt>
      <trkpt lat="42.3735" lon="2.45441">
        <ele>1506.08</ele>
        <time>2014-05-31T11:22:34Z</time>
      </trkpt>
      <trkpt lat="42.37367" lon="2.45407">
        <ele>1506.536</ele>
        <time>2014-05-31T11:22:46Z</time>
      </trkpt>
      <trkpt lat="42.37364" lon="2.45392">
        <ele>1506.522</ele>
        <time>2014-05-31T11:22:52Z</time>
      </trkpt>
      <trkpt lat="42.37338" lon="2.45369">
        <ele>1506.592</ele>
        <time>2014-05-31T11:23:06Z</time>
      </trkpt>
      <trkpt lat="42.3732" lon="2.45351">
        <ele>1506.573</ele>
        <time>2014-05-31T11:23:17Z</time>
      </trkpt>
      <trkpt lat="42.37307" lon="2.45343">
        <ele>1506.02</ele>
        <time>2014-05-31T11:23:29Z</time>
      </trkpt>
      <trkpt lat="42.37305" lon="2.45341">
        <ele>1506.508</ele>
        <time>2014-05-31T11:23:30Z</time>
      </trkpt>
      <trkpt lat="42.37301" lon="2.45337">
        <ele>1506.573</ele>
        <time>2014-05-31T11:23:42Z</time>
      </trkpt>
      <trkpt lat="42.37302" lon="2.45337">
        <ele>1506.076</ele>
        <time>2014-05-31T11:24:14Z</time>
      </trkpt>
      <trkpt lat="42.37302" lon="2.45336">
        <ele>1506.098</ele>
        <time>2014-05-31T11:24:39Z</time>
      </trkpt>
      <trkpt lat="42.373" lon="2.45335">
        <ele>1506.578</ele>
        <time>2014-05-31T11:24:47Z</time>
      </trkpt>
      <trkpt lat="42.37292" lon="2.45335">
        <ele>1505.664</ele>
        <time>2014-05-31T11:24:58Z</time>
      </trkpt>
      <trkpt lat="42.3729" lon="2.45335">
        <ele>1504.693</ele>
        <time>2014-05-31T11:25:38Z</time>
      </trkpt>
      <trkpt lat="42.37289" lon="2.45335">
        <ele>1505.129</ele>
        <time>2014-05-31T11:26:15Z</time>
      </trkpt>
      <trkpt lat="42.3729" lon="2.45336">
        <ele>1506.595</ele>
        <time>2014-05-31T11:26:24Z</time>
      </trkpt>
      <trkpt lat="42.37283" lon="2.45336">
        <ele>1506.021</ele>
        <time>2014-05-31T11:26:28Z</time>
      </trkpt>
      <trkpt lat="42.37245" lon="2.4532">
        <ele>1506.041</ele>
        <time>2014-05-31T11:26:42Z</time>
      </trkpt>
      <trkpt lat="42.37212" lon="2.45306">
        <ele>1505.605</ele>
        <time>2014-05-31T11:26:54Z</time>
      </trkpt>
      <trkpt lat="42.37182" lon="2.45272">
        <ele>1505.108</ele>
        <time>2014-05-31T11:27:07Z</time>
      </trkpt>
      <trkpt lat="42.37163" lon="2.45237">
        <ele>1506.096</ele>
        <time>2014-05-31T11:27:19Z</time>
      </trkpt>
      <trkpt lat="42.37131" lon="2.45211">
        <ele>1505.129</ele>
        <time>2014-05-31T11:27:33Z</time>
      </trkpt>
      <trkpt lat="42.37111" lon="2.4518">
        <ele>1505.161</ele>
        <time>2014-05-31T11:27:45Z</time>
      </trkpt>
      <trkpt lat="42.371" lon="2.45153">
        <ele>1505.121</ele>
        <time>2014-05-31T11:27:58Z</time>
      </trkpt>
      <trkpt lat="42.37088" lon="2.45127">
        <ele>1505.647</ele>
        <time>2014-05-31T11:28:10Z</time>
      </trkpt>
      <trkpt lat="42.37073" lon="2.45099">
        <ele>1505.126</ele>
        <time>2014-05-31T11:28:24Z</time>
      </trkpt>
      <trkpt lat="42.37063" lon="2.45091">
        <ele>1505.142</ele>
        <time>2014-05-31T11:28:30Z</time>
      </trkpt>
      <trkpt lat="42.3704" lon="2.45079">
        <ele>1504.648</ele>
        <time>2014-05-31T11:28:45Z</time>
      </trkpt>
      <trkpt lat="42.37026" lon="2.45053">
        <ele>1504.643</ele>
        <time>2014-05-31T11:28:58Z</time>
      </trkpt>
      <trkpt lat="42.37025" lon="2.45049">
        <ele>1504.164</ele>
        <time>2014-05-31T11:29:01Z</time>
      </trkpt>
      <trkpt lat="42.37023" lon="2.45044">
        <ele>1505.61</ele>
        <time>2014-05-31T11:29:14Z</time>
      </trkpt>
      <trkpt lat="42.37023" lon="2.45042">
        <ele>1504.108</ele>
        <time>2014-05-31T11:29:27Z</time>
      </trkpt>
      <trkpt lat="42.37022" lon="2.45041">
        <ele>1505.118</ele>
        <time>2014-05-31T11:29:39Z</time>
      </trkpt>
      <trkpt lat="42.37023" lon="2.45031">
        <ele>1505.121</ele>
        <time>2014-05-31T11:29:50Z</time>
      </trkpt>
      <trkpt lat="42.37016" lon="2.45005">
        <ele>1507.063</ele>
        <time>2014-05-31T11:30:02Z</time>
      </trkpt>
      <trkpt lat="42.37015" lon="2.45004">
        <ele>1507.033</ele>
        <time>2014-05-31T11:30:03Z</time>
      </trkpt>
      <trkpt lat="42.37012" lon="2.44993">
        <ele>1508.949</ele>
        <time>2014-05-31T11:30:16Z</time>
      </trkpt>
      <trkpt lat="42.37007" lon="2.4498">
        <ele>1510.488</ele>
        <time>2014-05-31T11:30:30Z</time>
      </trkpt>
      <trkpt lat="42.37" lon="2.44969">
        <ele>1513.214</ele>
        <time>2014-05-31T11:30:46Z</time>
      </trkpt>
      <trkpt lat="42.36992" lon="2.4496">
        <ele>1515.77</ele>
        <time>2014-05-31T11:31:00Z</time>
      </trkpt>
      <trkpt lat="42.36985" lon="2.44954">
        <ele>1518.195</ele>
        <time>2014-05-31T11:31:15Z</time>
      </trkpt>
      <trkpt lat="42.36972" lon="2.44944">
        <ele>1520.549</ele>
        <time>2014-05-31T11:31:34Z</time>
      </trkpt>
      <trkpt lat="42.36963" lon="2.44938">
        <ele>1523.823</ele>
        <time>2014-05-31T11:31:49Z</time>
      </trkpt>
      <trkpt lat="42.36952" lon="2.4493">
        <ele>1525.308</ele>
        <time>2014-05-31T11:32:06Z</time>
      </trkpt>
      <trkpt lat="42.36948" lon="2.44928">
        <ele>1526.243</ele>
        <time>2014-05-31T11:32:20Z</time>
      </trkpt>
      <trkpt lat="42.3695" lon="2.44927">
        <ele>1526.776</ele>
        <time>2014-05-31T11:32:26Z</time>
      </trkpt>
      <trkpt lat="42.36951" lon="2.4492">
        <ele>1526.278</ele>
        <time>2014-05-31T11:32:29Z</time>
      </trkpt>
      <trkpt lat="42.3695" lon="2.4491">
        <ele>1526.798</ele>
        <time>2014-05-31T11:32:39Z</time>
      </trkpt>
      <trkpt lat="42.3695" lon="2.44904">
        <ele>1525.864</ele>
        <time>2014-05-31T11:32:50Z</time>
      </trkpt>
      <trkpt lat="42.36946" lon="2.44894">
        <ele>1526.263</ele>
        <time>2014-05-31T11:32:55Z</time>
      </trkpt>
      <trkpt lat="42.36938" lon="2.44871">
        <ele>1527.229</ele>
        <time>2014-05-31T11:33:08Z</time>
      </trkpt>
      <trkpt lat="42.36937" lon="2.44864">
        <ele>1527.255</ele>
        <time>2014-05-31T11:33:19Z</time>
      </trkpt>
      <trkpt lat="42.36939" lon="2.44876">
        <ele>1526.742</ele>
        <time>2014-05-31T11:33:27Z</time>
      </trkpt>
      <trkpt lat="42.36937" lon="2.44883">
        <ele>1527.722</ele>
        <time>2014-05-31T11:33:32Z</time>
      </trkpt>
      <trkpt lat="42.36936" lon="2.44892">
        <ele>1527.714</ele>
        <time>2014-05-31T11:33:38Z</time>
      </trkpt>
      <trkpt lat="42.36933" lon="2.44908">
        <ele>1529.108</ele>
        <time>2014-05-31T11:33:52Z</time>
      </trkpt>
      <trkpt lat="42.36932" lon="2.44911">
        <ele>1530.188</ele>
        <time>2014-05-31T11:34:07Z</time>
      </trkpt>
      <trkpt lat="42.36931" lon="2.44909">
        <ele>1530.181</ele>
        <time>2014-05-31T11:34:18Z</time>
      </trkpt>
      <trkpt lat="42.3693" lon="2.44908">
        <ele>1530.613</ele>
        <time>2014-05-31T11:34:41Z</time>
      </trkpt>
      <trkpt lat="42.36921" lon="2.44888">
        <ele>1532.023</ele>
        <time>2014-05-31T11:34:50Z</time>
      </trkpt>
      <trkpt lat="42.3692" lon="2.44876">
        <ele>1530.139</ele>
        <time>2014-05-31T11:34:53Z</time>
      </trkpt>
      <trkpt lat="42.36919" lon="2.44865">
        <ele>1528.648</ele>
        <time>2014-05-31T11:34:55Z</time>
      </trkpt>
      <trkpt lat="42.36918" lon="2.44836">
        <ele>1530.124</ele>
        <time>2014-05-31T11:35:06Z</time>
      </trkpt>
      <trkpt lat="42.36916" lon="2.44807">
        <ele>1533.04</ele>
        <time>2014-05-31T11:35:21Z</time>
      </trkpt>
      <trkpt lat="42.36916" lon="2.44785">
        <ele>1535.467</ele>
        <time>2014-05-31T11:35:31Z</time>
      </trkpt>
      <trkpt lat="42.36913" lon="2.44748">
        <ele>1534.481</ele>
        <time>2014-05-31T11:35:47Z</time>
      </trkpt>
      <trkpt lat="42.36917" lon="2.44737">
        <ele>1533.919</ele>
        <time>2014-05-31T11:35:49Z</time>
      </trkpt>
      <trkpt lat="42.36923" lon="2.44724">
        <ele>1531.508</ele>
        <time>2014-05-31T11:35:51Z</time>
      </trkpt>
      <trkpt lat="42.36928" lon="2.44709">
        <ele>1530.68</ele>
        <time>2014-05-31T11:35:53Z</time>
      </trkpt>
      <trkpt lat="42.36938" lon="2.44686">
        <ele>1531.543</ele>
        <time>2014-05-31T11:36:02Z</time>
      </trkpt>
      <trkpt lat="42.36939" lon="2.44667">
        <ele>1533.025</ele>
        <time>2014-05-31T11:36:12Z</time>
      </trkpt>
      <trkpt lat="42.36941" lon="2.44652">
        <ele>1533.965</ele>
        <time>2014-05-31T11:36:22Z</time>
      </trkpt>
      <trkpt lat="42.36944" lon="2.44637">
        <ele>1535.881</ele>
        <time>2014-05-31T11:36:32Z</time>
      </trkpt>
      <trkpt lat="42.36945" lon="2.4463">
        <ele>1536.88</ele>
        <time>2014-05-31T11:36:39Z</time>
      </trkpt>
      <trkpt lat="42.36947" lon="2.44624">
        <ele>1536.866</ele>
        <time>2014-05-31T11:36:53Z</time>
      </trkpt>
      <trkpt lat="42.36948" lon="2.44626">
        <ele>1536.352</ele>
        <time>2014-05-31T11:37:21Z</time>
      </trkpt>
      <trkpt lat="42.36945" lon="2.44621">
        <ele>1536.342</ele>
        <time>2014-05-31T11:37:58Z</time>
      </trkpt>
      <trkpt lat="42.36945" lon="2.44624">
        <ele>1536.322</ele>
        <time>2014-05-31T11:38:27Z</time>
      </trkpt>
      <trkpt lat="42.36946" lon="2.44625">
        <ele>1536.314</ele>
        <time>2014-05-31T11:38:55Z</time>
      </trkpt>
      <trkpt lat="42.36947" lon="2.44622">
        <ele>1537.308</ele>
        <time>2014-05-31T11:39:31Z</time>
      </trkpt>
      <trkpt lat="42.36948" lon="2.44619">
        <ele>1539.228</ele>
        <time>2014-05-31T11:39:39Z</time>
      </trkpt>
      <trkpt lat="42.36952" lon="2.44604">
        <ele>1541.141</ele>
        <time>2014-05-31T11:39:51Z</time>
      </trkpt>
      <trkpt lat="42.36957" lon="2.44581">
        <ele>1543.583</ele>
        <time>2014-05-31T11:40:10Z</time>
      </trkpt>
      <trkpt lat="42.36961" lon="2.44563">
        <ele>1546.463</ele>
        <time>2014-05-31T11:40:24Z</time>
      </trkpt>
      <trkpt lat="42.36966" lon="2.4455">
        <ele>1548.849</ele>
        <time>2014-05-31T11:40:39Z</time>
      </trkpt>
      <trkpt lat="42.36973" lon="2.4454">
        <ele>1551.728</ele>
        <time>2014-05-31T11:40:52Z</time>
      </trkpt>
      <trkpt lat="42.36979" lon="2.44529">
        <ele>1554.664</ele>
        <time>2014-05-31T11:41:07Z</time>
      </trkpt>
      <trkpt lat="42.36986" lon="2.44518">
        <ele>1557.05</ele>
        <time>2014-05-31T11:41:22Z</time>
      </trkpt>
      <trkpt lat="42.36993" lon="2.44506">
        <ele>1559.976</ele>
        <time>2014-05-31T11:41:40Z</time>
      </trkpt>
      <trkpt lat="42.36994" lon="2.44494">
        <ele>1562.39</ele>
        <time>2014-05-31T11:41:55Z</time>
      </trkpt>
      <trkpt lat="42.36992" lon="2.44488">
        <ele>1563.219</ele>
        <time>2014-05-31T11:42:11Z</time>
      </trkpt>
      <trkpt lat="42.37012" lon="2.44481">
        <ele>1563.708</ele>
        <time>2014-05-31T11:42:28Z</time>
      </trkpt>
      <trkpt lat="42.37027" lon="2.44445">
        <ele>1572.731</ele>
        <time>2014-05-31T11:42:39Z</time>
      </trkpt>
      <trkpt lat="42.37046" lon="2.44413">
        <ele>1580.994</ele>
        <time>2014-05-31T11:42:45Z</time>
      </trkpt>
      <trkpt lat="42.37055" lon="2.44393">
        <ele>1584.686</ele>
        <time>2014-05-31T11:42:56Z</time>
      </trkpt>
      <trkpt lat="42.37073" lon="2.44366">
        <ele>1591.516</ele>
        <time>2014-05-31T11:43:09Z</time>
      </trkpt>
      <trkpt lat="42.37082" lon="2.44352">
        <ele>1594.682</ele>
        <time>2014-05-31T11:43:11Z</time>
      </trkpt>
      <trkpt lat="42.3709" lon="2.44317">
        <ele>1600.561</ele>
        <time>2014-05-31T11:43:20Z</time>
      </trkpt>
      <trkpt lat="42.37104" lon="2.44299">
        <ele>1605.977</ele>
        <time>2014-05-31T11:43:34Z</time>
      </trkpt>
      <trkpt lat="42.37115" lon="2.44285">
        <ele>1608.443</ele>
        <time>2014-05-31T11:43:46Z</time>
      </trkpt>
      <trkpt lat="42.37125" lon="2.44274">
        <ele>1608.431</ele>
        <time>2014-05-31T11:44:01Z</time>
      </trkpt>
      <trkpt lat="42.37141" lon="2.44253">
        <ele>1606.661</ele>
        <time>2014-05-31T11:44:12Z</time>
      </trkpt>
      <trkpt lat="42.37147" lon="2.44243">
        <ele>1606.007</ele>
        <time>2014-05-31T11:44:26Z</time>
      </trkpt>
      <trkpt lat="42.37164" lon="2.44231">
        <ele>1601.308</ele>
        <time>2014-05-31T11:44:42Z</time>
      </trkpt>
      <trkpt lat="42.37174" lon="2.44216">
        <ele>1599.297</ele>
        <time>2014-05-31T11:44:44Z</time>
      </trkpt>
      <trkpt lat="42.37183" lon="2.44206">
        <ele>1597.49</ele>
        <time>2014-05-31T11:44:52Z</time>
      </trkpt>
      <trkpt lat="42.37194" lon="2.44195">
        <ele>1596.442</ele>
        <time>2014-05-31T11:44:55Z</time>
      </trkpt>
      <trkpt lat="42.372" lon="2.44184">
        <ele>1595.872</ele>
        <time>2014-05-31T11:45:04Z</time>
      </trkpt>
      <trkpt lat="42.37207" lon="2.44175">
        <ele>1594.618</ele>
        <time>2014-05-31T11:45:17Z</time>
      </trkpt>
      <trkpt lat="42.37214" lon="2.44164">
        <ele>1594.097</ele>
        <time>2014-05-31T11:45:27Z</time>
      </trkpt>
      <trkpt lat="42.37218" lon="2.44151">
        <ele>1593.843</ele>
        <time>2014-05-31T11:45:31Z</time>
      </trkpt>
      <trkpt lat="42.37225" lon="2.4414">
        <ele>1592.969</ele>
        <time>2014-05-31T11:45:43Z</time>
      </trkpt>
      <trkpt lat="42.37233" lon="2.44124">
        <ele>1590.564</ele>
        <time>2014-05-31T11:45:56Z</time>
      </trkpt>
      <trkpt lat="42.37243" lon="2.4411">
        <ele>1587.206</ele>
        <time>2014-05-31T11:46:10Z</time>
      </trkpt>
      <trkpt lat="42.37252" lon="2.44087">
        <ele>1583.316</ele>
        <time>2014-05-31T11:46:24Z</time>
      </trkpt>
      <trkpt lat="42.3728" lon="2.44046">
        <ele>1580.008</ele>
        <time>2014-05-31T11:46:38Z</time>
      </trkpt>
      <trkpt lat="42.37295" lon="2.44025">
        <ele>1580.08</ele>
        <time>2014-05-31T11:46:54Z</time>
      </trkpt>
      <trkpt lat="42.37307" lon="2.44012">
        <ele>1580.013</ele>
        <time>2014-05-31T11:47:05Z</time>
      </trkpt>
      <trkpt lat="42.3732" lon="2.43993">
        <ele>1580.015</ele>
        <time>2014-05-31T11:47:06Z</time>
      </trkpt>
      <trkpt lat="42.37351" lon="2.43949">
        <ele>1580.025</ele>
        <time>2014-05-31T11:47:14Z</time>
      </trkpt>
      <trkpt lat="42.37379" lon="2.43888">
        <ele>1579.451</ele>
        <time>2014-05-31T11:47:28Z</time>
      </trkpt>
      <trkpt lat="42.374" lon="2.43835">
        <ele>1578.79</ele>
        <time>2014-05-31T11:47:38Z</time>
      </trkpt>
      <trkpt lat="42.37414" lon="2.43801">
        <ele>1579.716</ele>
        <time>2014-05-31T11:47:51Z</time>
      </trkpt>
      <trkpt lat="42.37429" lon="2.43762">
        <ele>1583.162</ele>
        <time>2014-05-31T11:48:06Z</time>
      </trkpt>
      <trkpt lat="42.37442" lon="2.4373">
        <ele>1586.636</ele>
        <time>2014-05-31T11:48:19Z</time>
      </trkpt>
      <trkpt lat="42.37458" lon="2.43689">
        <ele>1589.617</ele>
        <time>2014-05-31T11:48:26Z</time>
      </trkpt>
      <trkpt lat="42.37473" lon="2.43662">
        <ele>1592.418</ele>
        <time>2014-05-31T11:48:39Z</time>
      </trkpt>
      <trkpt lat="42.37494" lon="2.43649">
        <ele>1594.808</ele>
        <time>2014-05-31T11:48:57Z</time>
      </trkpt>
      <trkpt lat="42.37512" lon="2.43625">
        <ele>1597.577</ele>
        <time>2014-05-31T11:49:08Z</time>
      </trkpt>
      <trkpt lat="42.37538" lon="2.43599">
        <ele>1600.96</ele>
        <time>2014-05-31T11:49:20Z</time>
      </trkpt>
      <trkpt lat="42.37559" lon="2.43575">
        <ele>1605.412</ele>
        <time>2014-05-31T11:49:33Z</time>
      </trkpt>
      <trkpt lat="42.37584" lon="2.4353">
        <ele>1612.222</ele>
        <time>2014-05-31T11:49:48Z</time>
      </trkpt>
      <trkpt lat="42.37612" lon="2.43514">
        <ele>1616.918</ele>
        <time>2014-05-31T11:50:01Z</time>
      </trkpt>
      <trkpt lat="42.37636" lon="2.43507">
        <ele>1619.957</ele>
        <time>2014-05-31T11:50:05Z</time>
      </trkpt>
      <trkpt lat="42.37661" lon="2.43499">
        <ele>1620.043</ele>
        <time>2014-05-31T11:50:20Z</time>
      </trkpt>
      <trkpt lat="42.37683" lon="2.43477">
        <ele>1620.089</ele>
        <time>2014-05-31T11:50:26Z</time>
      </trkpt>
      <trkpt lat="42.37709" lon="2.43426">
        <ele>1620.039</ele>
        <time>2014-05-31T11:50:40Z</time>
      </trkpt>
      <trkpt lat="42.37716" lon="2.43398">
        <ele>1620.001</ele>
        <time>2014-05-31T11:50:41Z</time>
      </trkpt>
      <trkpt lat="42.37735" lon="2.43382">
        <ele>1620.921</ele>
        <time>2014-05-31T11:50:51Z</time>
      </trkpt>
      <trkpt lat="42.37761" lon="2.43363">
        <ele>1622.108</ele>
        <time>2014-05-31T11:50:58Z</time>
      </trkpt>
      <trkpt lat="42.37782" lon="2.43348">
        <ele>1622.757</ele>
        <time>2014-05-31T11:51:11Z</time>
      </trkpt>
      <trkpt lat="42.37802" lon="2.43336">
        <ele>1622.01</ele>
        <time>2014-05-31T11:51:23Z</time>
      </trkpt>
      <trkpt lat="42.37827" lon="2.43328">
        <ele>1621.972</ele>
        <time>2014-05-31T11:51:35Z</time>
      </trkpt>
      <trkpt lat="42.37848" lon="2.43329">
        <ele>1621.042</ele>
        <time>2014-05-31T11:51:47Z</time>
      </trkpt>
      <trkpt lat="42.37867" lon="2.43335">
        <ele>1620.268</ele>
        <time>2014-05-31T11:52:00Z</time>
      </trkpt>
      <trkpt lat="42.37886" lon="2.43349">
        <ele>1620.027</ele>
        <time>2014-05-31T11:52:05Z</time>
      </trkpt>
      <trkpt lat="42.37909" lon="2.43355">
        <ele>1620.033</ele>
        <time>2014-05-31T11:52:09Z</time>
      </trkpt>
      <trkpt lat="42.37926" lon="2.43365">
        <ele>1620.089</ele>
        <time>2014-05-31T11:52:17Z</time>
      </trkpt>
      <trkpt lat="42.37943" lon="2.43369">
        <ele>1620.021</ele>
        <time>2014-05-31T11:52:30Z</time>
      </trkpt>
      <trkpt lat="42.3796" lon="2.43388">
        <ele>1620.041</ele>
        <time>2014-05-31T11:52:42Z</time>
      </trkpt>
      <trkpt lat="42.3797" lon="2.43396">
        <ele>1620.005</ele>
        <time>2014-05-31T11:52:53Z</time>
      </trkpt>
      <trkpt lat="42.37992" lon="2.43392">
        <ele>1620.008</ele>
        <time>2014-05-31T11:55:49Z</time>
      </trkpt>
      <trkpt lat="42.38001" lon="2.43388">
        <ele>1620.076</ele>
        <time>2014-05-31T11:55:56Z</time>
      </trkpt>
      <trkpt lat="42.38012" lon="2.43388">
        <ele>1620.059</ele>
        <time>2014-05-31T11:56:07Z</time>
      </trkpt>
      <trkpt lat="42.38025" lon="2.43382">
        <ele>1620.041</ele>
        <time>2014-05-31T11:56:18Z</time>
      </trkpt>
      <trkpt lat="42.38036" lon="2.43381">
        <ele>1621.241</ele>
        <time>2014-05-31T11:56:31Z</time>
      </trkpt>
      <trkpt lat="42.38045" lon="2.43378">
        <ele>1622.447</ele>
        <time>2014-05-31T11:56:44Z</time>
      </trkpt>
      <trkpt lat="42.38059" lon="2.43378">
        <ele>1624.186</ele>
        <time>2014-05-31T11:57:00Z</time>
      </trkpt>
      <trkpt lat="42.38068" lon="2.43373">
        <ele>1624.712</ele>
        <time>2014-05-31T11:57:12Z</time>
      </trkpt>
      <trkpt lat="42.38075" lon="2.43371">
        <ele>1625.378</ele>
        <time>2014-05-31T11:57:19Z</time>
      </trkpt>
      <trkpt lat="42.38086" lon="2.43369">
        <ele>1626.711</ele>
        <time>2014-05-31T11:57:31Z</time>
      </trkpt>
      <trkpt lat="42.38096" lon="2.43367">
        <ele>1627.521</ele>
        <time>2014-05-31T11:57:44Z</time>
      </trkpt>
      <trkpt lat="42.38111" lon="2.43366">
        <ele>1628.803</ele>
        <time>2014-05-31T11:57:59Z</time>
      </trkpt>
      <trkpt lat="42.38119" lon="2.4336">
        <ele>1629.908</ele>
        <time>2014-05-31T11:58:09Z</time>
      </trkpt>
      <trkpt lat="42.38128" lon="2.43358">
        <ele>1630.535</ele>
        <time>2014-05-31T11:58:16Z</time>
      </trkpt>
      <trkpt lat="42.38142" lon="2.43355">
        <ele>1631.958</ele>
        <time>2014-05-31T11:58:51Z</time>
      </trkpt>
      <trkpt lat="42.38157" lon="2.43351">
        <ele>1633.82</ele>
        <time>2014-05-31T11:59:02Z</time>
      </trkpt>
      <trkpt lat="42.38172" lon="2.43365">
        <ele>1634.45</ele>
        <time>2014-05-31T11:59:12Z</time>
      </trkpt>
      <trkpt lat="42.3819" lon="2.43381">
        <ele>1633.556</ele>
        <time>2014-05-31T11:59:25Z</time>
      </trkpt>
      <trkpt lat="42.38201" lon="2.43401">
        <ele>1632.325</ele>
        <time>2014-05-31T11:59:35Z</time>
      </trkpt>
      <trkpt lat="42.38215" lon="2.43422">
        <ele>1629.731</ele>
        <time>2014-05-31T11:59:49Z</time>
      </trkpt>
      <trkpt lat="42.38225" lon="2.43442">
        <ele>1627.457</ele>
        <time>2014-05-31T11:59:56Z</time>
      </trkpt>
      <trkpt lat="42.38235" lon="2.43455">
        <ele>1625.949</ele>
        <time>2014-05-31T12:00:02Z</time>
      </trkpt>
      <trkpt lat="42.3825" lon="2.43479">
        <ele>1622.402</ele>
        <time>2014-05-31T12:00:12Z</time>
      </trkpt>
      <trkpt lat="42.38258" lon="2.43504">
        <ele>1620.322</ele>
        <time>2014-05-31T12:00:24Z</time>
      </trkpt>
      <trkpt lat="42.3827" lon="2.43526">
        <ele>1620.008</ele>
        <time>2014-05-31T12:00:36Z</time>
      </trkpt>
      <trkpt lat="42.38278" lon="2.43549">
        <ele>1620.098</ele>
        <time>2014-05-31T12:00:48Z</time>
      </trkpt>
      <trkpt lat="42.38291" lon="2.43568">
        <ele>1620.061</ele>
        <time>2014-05-31T12:00:57Z</time>
      </trkpt>
      <trkpt lat="42.38319" lon="2.43578">
        <ele>1620.073</ele>
        <time>2014-05-31T12:01:00Z</time>
      </trkpt>
      <trkpt lat="42.38346" lon="2.43574">
        <ele>1619.243</ele>
        <time>2014-05-31T12:01:05Z</time>
      </trkpt>
      <trkpt lat="42.38396" lon="2.43566">
        <ele>1613.789</ele>
        <time>2014-05-31T12:01:16Z</time>
      </trkpt>
      <trkpt lat="42.38434" lon="2.43558">
        <ele>1609.558</ele>
        <time>2014-05-31T12:01:20Z</time>
      </trkpt>
      <trkpt lat="42.38468" lon="2.43548">
        <ele>1606.114</ele>
        <time>2014-05-31T12:01:32Z</time>
      </trkpt>
      <trkpt lat="42.38489" lon="2.43541">
        <ele>1603.41</ele>
        <time>2014-05-31T12:01:39Z</time>
      </trkpt>
      <trkpt lat="42.38526" lon="2.43534">
        <ele>1600.092</ele>
        <time>2014-05-31T12:01:50Z</time>
      </trkpt>
      <trkpt lat="42.38547" lon="2.43531">
        <ele>1600.073</ele>
        <time>2014-05-31T12:01:56Z</time>
      </trkpt>
      <trkpt lat="42.38587" lon="2.43524">
        <ele>1600.02</ele>
        <time>2014-05-31T12:02:01Z</time>
      </trkpt>
      <trkpt lat="42.38608" lon="2.43522">
        <ele>1600.008</ele>
        <time>2014-05-31T12:02:06Z</time>
      </trkpt>
      <trkpt lat="42.38635" lon="2.43513">
        <ele>1600.093</ele>
        <time>2014-05-31T12:02:19Z</time>
      </trkpt>
      <trkpt lat="42.38653" lon="2.43511">
        <ele>1600.086</ele>
        <time>2014-05-31T12:02:26Z</time>
      </trkpt>
      <trkpt lat="42.38669" lon="2.43508">
        <ele>1590.668</ele>
        <time>2014-05-31T12:02:40Z</time>
      </trkpt>
      <trkpt lat="42.38669" lon="2.43507">
        <ele>1590.688</ele>
        <time>2014-05-31T12:02:46Z</time>
      </trkpt>
      <trkpt lat="42.3867" lon="2.43511">
        <ele>1590.224</ele>
        <time>2014-05-31T12:02:49Z</time>
      </trkpt>
      <trkpt lat="42.38688" lon="2.43504">
        <ele>1591.173</ele>
        <time>2014-05-31T12:03:00Z</time>
      </trkpt>
      <trkpt lat="42.38697" lon="2.43506">
        <ele>1590.689</ele>
        <time>2014-05-31T12:03:04Z</time>
      </trkpt>
      <trkpt lat="42.38731" lon="2.43538">
        <ele>1591.645</ele>
        <time>2014-05-31T12:03:19Z</time>
      </trkpt>
      <trkpt lat="42.38754" lon="2.43586">
        <ele>1592.639</ele>
        <time>2014-05-31T12:03:32Z</time>
      </trkpt>
      <trkpt lat="42.38772" lon="2.43628">
        <ele>1594.501</ele>
        <time>2014-05-31T12:03:45Z</time>
      </trkpt>
      <trkpt lat="42.38774" lon="2.43632">
        <ele>1591.121</ele>
        <time>2014-05-31T12:03:47Z</time>
      </trkpt>
      <trkpt lat="42.38777" lon="2.43636">
        <ele>1596.408</ele>
        <time>2014-05-31T12:03:49Z</time>
      </trkpt>
      <trkpt lat="42.38778" lon="2.43637">
        <ele>1595.417</ele>
        <time>2014-05-31T12:03:50Z</time>
      </trkpt>
      <trkpt lat="42.3878" lon="2.43639">
        <ele>1588.78</ele>
        <time>2014-05-31T12:03:52Z</time>
      </trkpt>
      <trkpt lat="42.38781" lon="2.43641">
        <ele>1595.952</ele>
        <time>2014-05-31T12:03:53Z</time>
      </trkpt>
      <trkpt lat="42.38792" lon="2.43657">
        <ele>1595.912</ele>
        <time>2014-05-31T12:04:06Z</time>
      </trkpt>
      <trkpt lat="42.38805" lon="2.4367">
        <ele>1596.468</ele>
        <time>2014-05-31T12:04:17Z</time>
      </trkpt>
      <trkpt lat="42.3881" lon="2.43666">
        <ele>1595.917</ele>
        <time>2014-05-31T12:04:40Z</time>
      </trkpt>
      <trkpt lat="42.38813" lon="2.43673">
        <ele>1595.913</ele>
        <time>2014-05-31T12:04:56Z</time>
      </trkpt>
      <trkpt lat="42.38812" lon="2.43675">
        <ele>1595.999</ele>
        <time>2014-05-31T12:05:15Z</time>
      </trkpt>
      <trkpt lat="42.38821" lon="2.43678">
        <ele>1595.985</ele>
        <time>2014-05-31T12:05:29Z</time>
      </trkpt>
      <trkpt lat="42.38823" lon="2.43679">
        <ele>1596.489</ele>
        <time>2014-05-31T12:05:44Z</time>
      </trkpt>
      <trkpt lat="42.38828" lon="2.43678">
        <ele>1595.917</ele>
        <time>2014-05-31T12:05:57Z</time>
      </trkpt>
      <trkpt lat="42.38831" lon="2.43679">
        <ele>1596.408</ele>
        <time>2014-05-31T12:06:00Z</time>
      </trkpt>
      <trkpt lat="42.38839" lon="2.43682">
        <ele>1595.942</ele>
        <time>2014-05-31T12:06:05Z</time>
      </trkpt>
      <trkpt lat="42.38853" lon="2.4368">
        <ele>1596.465</ele>
        <time>2014-05-31T12:06:11Z</time>
      </trkpt>
      <trkpt lat="42.38886" lon="2.43688">
        <ele>1597.477</ele>
        <time>2014-05-31T12:06:24Z</time>
      </trkpt>
      <trkpt lat="42.38894" lon="2.43689">
        <ele>1596.957</ele>
        <time>2014-05-31T12:06:27Z</time>
      </trkpt>
      <trkpt lat="42.38905" lon="2.43695">
        <ele>1596.923</ele>
        <time>2014-05-31T12:06:31Z</time>
      </trkpt>
      <trkpt lat="42.38937" lon="2.43716">
        <ele>1596.912</ele>
        <time>2014-05-31T12:06:43Z</time>
      </trkpt>
      <trkpt lat="42.3894" lon="2.4372">
        <ele>1597.458</ele>
        <time>2014-05-31T12:06:46Z</time>
      </trkpt>
      <trkpt lat="42.38971" lon="2.43732">
        <ele>1596.914</ele>
        <time>2014-05-31T12:06:57Z</time>
      </trkpt>
      <trkpt lat="42.39003" lon="2.43728">
        <ele>1596.448</ele>
        <time>2014-05-31T12:07:07Z</time>
      </trkpt>
      <trkpt lat="42.39014" lon="2.43724">
        <ele>1596.961</ele>
        <time>2014-05-31T12:07:11Z</time>
      </trkpt>
      <trkpt lat="42.39036" lon="2.4372">
        <ele>1596.417</ele>
        <time>2014-05-31T12:07:20Z</time>
      </trkpt>
      <trkpt lat="42.39066" lon="2.43708">
        <ele>1596.908</ele>
        <time>2014-05-31T12:07:30Z</time>
      </trkpt>
      <trkpt lat="42.39096" lon="2.43689">
        <ele>1596.418</ele>
        <time>2014-05-31T12:07:40Z</time>
      </trkpt>
      <trkpt lat="42.39121" lon="2.43683">
        <ele>1596.461</ele>
        <time>2014-05-31T12:07:48Z</time>
      </trkpt>
      <trkpt lat="42.39139" lon="2.4368">
        <ele>1596.443</ele>
        <time>2014-05-31T12:07:53Z</time>
      </trkpt>
      <trkpt lat="42.39182" lon="2.43669">
        <ele>1595.433</ele>
        <time>2014-05-31T12:08:04Z</time>
      </trkpt>
      <trkpt lat="42.39227" lon="2.43649">
        <ele>1595.089</ele>
        <time>2014-05-31T12:08:15Z</time>
      </trkpt>
      <trkpt lat="42.39247" lon="2.43636">
        <ele>1593.598</ele>
        <time>2014-05-31T12:08:21Z</time>
      </trkpt>
      <trkpt lat="42.39259" lon="2.43634">
        <ele>1592.114</ele>
        <time>2014-05-31T12:08:34Z</time>
      </trkpt>
      <trkpt lat="42.39258" lon="2.43636">
        <ele>1591.64</ele>
        <time>2014-05-31T12:09:19Z</time>
      </trkpt>
      <trkpt lat="42.39259" lon="2.43635">
        <ele>1591.642</ele>
        <time>2014-05-31T12:09:57Z</time>
      </trkpt>
      <trkpt lat="42.3926" lon="2.43638">
        <ele>1590.622</ele>
        <time>2014-05-31T12:10:37Z</time>
      </trkpt>
      <trkpt lat="42.39259" lon="2.43636">
        <ele>1591.114</ele>
        <time>2014-05-31T12:11:24Z</time>
      </trkpt>
      <trkpt lat="42.39259" lon="2.43635">
        <ele>1591.108</ele>
        <time>2014-05-31T12:12:09Z</time>
      </trkpt>
      <trkpt lat="42.3926" lon="2.43635">
        <ele>1591.118</ele>
        <time>2014-05-31T12:12:44Z</time>
      </trkpt>
      <trkpt lat="42.3926" lon="2.43633">
        <ele>1592.681</ele>
        <time>2014-05-31T12:13:30Z</time>
      </trkpt>
      <trkpt lat="42.39262" lon="2.43632">
        <ele>1592.123</ele>
        <time>2014-05-31T12:13:53Z</time>
      </trkpt>
      <trkpt lat="42.39262" lon="2.4363">
        <ele>1592.163</ele>
        <time>2014-05-31T12:13:55Z</time>
      </trkpt>
      <trkpt lat="42.3926" lon="2.43633">
        <ele>1593.099</ele>
        <time>2014-05-31T12:26:53Z</time>
      </trkpt>
      <trkpt lat="42.39245" lon="2.43628">
        <ele>1593.048</ele>
        <time>2014-05-31T12:26:54Z</time>
      </trkpt>
      <trkpt lat="42.39258" lon="2.43631">
        <ele>1593.054</ele>
        <time>2014-05-31T12:27:14Z</time>
      </trkpt>
      <trkpt lat="42.39263" lon="2.43631">
        <ele>1594.01</ele>
        <time>2014-05-31T12:27:33Z</time>
      </trkpt>
      <trkpt lat="42.39261" lon="2.43632">
        <ele>1594.535</ele>
        <time>2014-05-31T12:28:23Z</time>
      </trkpt>
      <trkpt lat="42.39263" lon="2.43633">
        <ele>1594.586</ele>
        <time>2014-05-31T12:28:58Z</time>
      </trkpt>
      <trkpt lat="42.39262" lon="2.4363">
        <ele>1594.014</ele>
        <time>2014-05-31T12:29:39Z</time>
      </trkpt>
      <trkpt lat="42.39259" lon="2.43629">
        <ele>1594.508</ele>
        <time>2014-05-31T12:30:22Z</time>
      </trkpt>
      <trkpt lat="42.3926" lon="2.43629">
        <ele>1594.567</ele>
        <time>2014-05-31T12:30:57Z</time>
      </trkpt>
      <trkpt lat="42.39261" lon="2.4363">
        <ele>1595.03</ele>
        <time>2014-05-31T12:31:33Z</time>
      </trkpt>
      <trkpt lat="42.39261" lon="2.43629">
        <ele>1594.532</ele>
        <time>2014-05-31T12:32:03Z</time>
      </trkpt>
      <trkpt lat="42.39259" lon="2.43628">
        <ele>1595.052</ele>
        <time>2014-05-31T12:32:39Z</time>
      </trkpt>
      <trkpt lat="42.3926" lon="2.43631">
        <ele>1595.458</ele>
        <time>2014-05-31T12:33:03Z</time>
      </trkpt>
      <trkpt lat="42.39258" lon="2.4363">
        <ele>1595.497</ele>
        <time>2014-05-31T12:33:37Z</time>
      </trkpt>
      <trkpt lat="42.3926" lon="2.4363">
        <ele>1595.963</ele>
        <time>2014-05-31T12:34:27Z</time>
      </trkpt>
      <trkpt lat="42.39261" lon="2.43633">
        <ele>1596.459</ele>
        <time>2014-05-31T12:35:10Z</time>
      </trkpt>
      <trkpt lat="42.39262" lon="2.43632">
        <ele>1596.914</ele>
        <time>2014-05-31T12:35:50Z</time>
      </trkpt>
      <trkpt lat="42.39262" lon="2.43631">
        <ele>1595.954</ele>
        <time>2014-05-31T12:36:33Z</time>
      </trkpt>
      <trkpt lat="42.39262" lon="2.43638">
        <ele>1595.909</ele>
        <time>2014-05-31T12:37:15Z</time>
      </trkpt>
      <trkpt lat="42.39264" lon="2.43639">
        <ele>1595.908</ele>
        <time>2014-05-31T12:37:57Z</time>
      </trkpt>
      <trkpt lat="42.39262" lon="2.43634">
        <ele>1597.855</ele>
        <time>2014-05-31T12:38:44Z</time>
      </trkpt>
      <trkpt lat="42.39264" lon="2.43635">
        <ele>1596.938</ele>
        <time>2014-05-31T12:39:21Z</time>
      </trkpt>
      <trkpt lat="42.39264" lon="2.43633">
        <ele>1598.37</ele>
        <time>2014-05-31T12:40:14Z</time>
      </trkpt>
      <trkpt lat="42.39262" lon="2.43636">
        <ele>1597.89</ele>
        <time>2014-05-31T12:41:12Z</time>
      </trkpt>
      <trkpt lat="42.39264" lon="2.43636">
        <ele>1597.456</ele>
        <time>2014-05-31T12:42:03Z</time>
      </trkpt>
      <trkpt lat="42.39264" lon="2.43633">
        <ele>1597.455</ele>
        <time>2014-05-31T12:42:52Z</time>
      </trkpt>
      <trkpt lat="42.39263" lon="2.43631">
        <ele>1596.921</ele>
        <time>2014-05-31T12:43:43Z</time>
      </trkpt>
      <trkpt lat="42.39262" lon="2.4363">
        <ele>1597.817</ele>
        <time>2014-05-31T12:44:22Z</time>
      </trkpt>
      <trkpt lat="42.39265" lon="2.4363">
        <ele>1597.486</ele>
        <time>2014-05-31T12:44:41Z</time>
      </trkpt>
      <trkpt lat="42.39277" lon="2.43638">
        <ele>1596.96</ele>
        <time>2014-05-31T12:44:47Z</time>
      </trkpt>
      <trkpt lat="42.39293" lon="2.43654">
        <ele>1596.426</ele>
        <time>2014-05-31T12:44:52Z</time>
      </trkpt>
      <trkpt lat="42.39306" lon="2.4368">
        <ele>1595.408</ele>
        <time>2014-05-31T12:44:57Z</time>
      </trkpt>
      <trkpt lat="42.39309" lon="2.43712">
        <ele>1594.572</ele>
        <time>2014-05-31T12:45:02Z</time>
      </trkpt>
      <trkpt lat="42.39304" lon="2.43743">
        <ele>1593.585</ele>
        <time>2014-05-31T12:45:06Z</time>
      </trkpt>
      <trkpt lat="42.39307" lon="2.43798">
        <ele>1592.197</ele>
        <time>2014-05-31T12:45:12Z</time>
      </trkpt>
      <trkpt lat="42.39328" lon="2.43843">
        <ele>1589.287</ele>
        <time>2014-05-31T12:45:17Z</time>
      </trkpt>
      <trkpt lat="42.39345" lon="2.43901">
        <ele>1585.333</ele>
        <time>2014-05-31T12:45:23Z</time>
      </trkpt>
      <trkpt lat="42.39346" lon="2.43905">
        <ele>1585.322</ele>
        <time>2014-05-31T12:45:24Z</time>
      </trkpt>
      <trkpt lat="42.39344" lon="2.43924">
        <ele>1582.088</ele>
        <time>2014-05-31T12:45:31Z</time>
      </trkpt>
      <trkpt lat="42.39341" lon="2.43931">
        <ele>1579.114</ele>
        <time>2014-05-31T12:45:34Z</time>
      </trkpt>
      <trkpt lat="42.3934" lon="2.43934">
        <ele>1578.659</ele>
        <time>2014-05-31T12:45:36Z</time>
      </trkpt>
      <trkpt lat="42.39338" lon="2.43939">
        <ele>1578.103</ele>
        <time>2014-05-31T12:45:38Z</time>
      </trkpt>
      <trkpt lat="42.39328" lon="2.43939">
        <ele>1576.223</ele>
        <time>2014-05-31T12:45:41Z</time>
      </trkpt>
      <trkpt lat="42.39313" lon="2.43941">
        <ele>1574.308</ele>
        <time>2014-05-31T12:45:49Z</time>
      </trkpt>
      <trkpt lat="42.3931" lon="2.43956">
        <ele>1572.849</ele>
        <time>2014-05-31T12:46:15Z</time>
      </trkpt>
      <trkpt lat="42.3931" lon="2.43961">
        <ele>1572.892</ele>
        <time>2014-05-31T12:46:16Z</time>
      </trkpt>
      <trkpt lat="42.39307" lon="2.43977">
        <ele>1569.014</ele>
        <time>2014-05-31T12:46:19Z</time>
      </trkpt>
      <trkpt lat="42.39301" lon="2.43998">
        <ele>1566.114</ele>
        <time>2014-05-31T12:46:22Z</time>
      </trkpt>
      <trkpt lat="42.39297" lon="2.4401">
        <ele>1563.78</ele>
        <time>2014-05-31T12:46:24Z</time>
      </trkpt>
      <trkpt lat="42.39291" lon="2.4403">
        <ele>1559.429</ele>
        <time>2014-05-31T12:46:27Z</time>
      </trkpt>
      <trkpt lat="42.39285" lon="2.44052">
        <ele>1554.695</ele>
        <time>2014-05-31T12:46:30Z</time>
      </trkpt>
      <trkpt lat="42.39282" lon="2.44061">
        <ele>1553.261</ele>
        <time>2014-05-31T12:46:31Z</time>
      </trkpt>
      <trkpt lat="42.39271" lon="2.44091">
        <ele>1549.379</ele>
        <time>2014-05-31T12:46:34Z</time>
      </trkpt>
      <trkpt lat="42.39263" lon="2.44124">
        <ele>1547.405</ele>
        <time>2014-05-31T12:46:37Z</time>
      </trkpt>
      <trkpt lat="42.3926" lon="2.44134">
        <ele>1546.925</ele>
        <time>2014-05-31T12:46:38Z</time>
      </trkpt>
      <trkpt lat="42.39258" lon="2.44151">
        <ele>1545.508</ele>
        <time>2014-05-31T12:46:40Z</time>
      </trkpt>
      <trkpt lat="42.39258" lon="2.44185">
        <ele>1543.541</ele>
        <time>2014-05-31T12:46:45Z</time>
      </trkpt>
      <trkpt lat="42.39258" lon="2.44198">
        <ele>1542.184</ele>
        <time>2014-05-31T12:46:48Z</time>
      </trkpt>
      <trkpt lat="42.39257" lon="2.44224">
        <ele>1541.136</ele>
        <time>2014-05-31T12:46:53Z</time>
      </trkpt>
      <trkpt lat="42.39262" lon="2.44242">
        <ele>1539.756</ele>
        <time>2014-05-31T12:46:56Z</time>
      </trkpt>
      <trkpt lat="42.39266" lon="2.44245">
        <ele>1538.732</ele>
        <time>2014-05-31T12:46:57Z</time>
      </trkpt>
      <trkpt lat="42.39287" lon="2.44257">
        <ele>1539.241</ele>
        <time>2014-05-31T12:47:07Z</time>
      </trkpt>
      <trkpt lat="42.39288" lon="2.44258">
        <ele>1538.767</ele>
        <time>2014-05-31T12:47:09Z</time>
      </trkpt>
      <trkpt lat="42.3929" lon="2.44259">
        <ele>1538.713</ele>
        <time>2014-05-31T12:47:11Z</time>
      </trkpt>
      <trkpt lat="42.39296" lon="2.44258">
        <ele>1539.789</ele>
        <time>2014-05-31T12:47:24Z</time>
      </trkpt>
      <trkpt lat="42.39307" lon="2.44261">
        <ele>1539.706</ele>
        <time>2014-05-31T12:47:40Z</time>
      </trkpt>
      <trkpt lat="42.39335" lon="2.44277">
        <ele>1538.726</ele>
        <time>2014-05-31T12:47:53Z</time>
      </trkpt>
      <trkpt lat="42.39349" lon="2.44296">
        <ele>1537.308</ele>
        <time>2014-05-31T12:47:59Z</time>
      </trkpt>
      <trkpt lat="42.39359" lon="2.44308">
        <ele>1536.842</ele>
        <time>2014-05-31T12:48:02Z</time>
      </trkpt>
      <trkpt lat="42.39371" lon="2.44329">
        <ele>1535.815</ele>
        <time>2014-05-31T12:48:06Z</time>
      </trkpt>
      <trkpt lat="42.39381" lon="2.44355">
        <ele>1534.927</ele>
        <time>2014-05-31T12:48:10Z</time>
      </trkpt>
      <trkpt lat="42.39385" lon="2.44369">
        <ele>1533.437</ele>
        <time>2014-05-31T12:48:12Z</time>
      </trkpt>
      <trkpt lat="42.39388" lon="2.44377">
        <ele>1533.473</ele>
        <time>2014-05-31T12:48:13Z</time>
      </trkpt>
      <trkpt lat="42.39393" lon="2.44391">
        <ele>1533.422</ele>
        <time>2014-05-31T12:48:15Z</time>
      </trkpt>
      <trkpt lat="42.394" lon="2.44423">
        <ele>1533.088</ele>
        <time>2014-05-31T12:48:19Z</time>
      </trkpt>
      <trkpt lat="42.39398" lon="2.44485">
        <ele>1529.664</ele>
        <time>2014-05-31T12:48:26Z</time>
      </trkpt>
      <trkpt lat="42.39389" lon="2.44515">
        <ele>1529.179</ele>
        <time>2014-05-31T12:48:30Z</time>
      </trkpt>
      <trkpt lat="42.39377" lon="2.44534">
        <ele>1529.605</ele>
        <time>2014-05-31T12:48:36Z</time>
      </trkpt>
      <trkpt lat="42.39379" lon="2.44536">
        <ele>1527.225</ele>
        <time>2014-05-31T12:48:50Z</time>
      </trkpt>
      <trkpt lat="42.39379" lon="2.44533">
        <ele>1527.708</ele>
        <time>2014-05-31T12:49:13Z</time>
      </trkpt>
      <trkpt lat="42.39381" lon="2.44535">
        <ele>1528.251</ele>
        <time>2014-05-31T12:49:52Z</time>
      </trkpt>
      <trkpt lat="42.39377" lon="2.44537">
        <ele>1527.274</ele>
        <time>2014-05-31T12:50:24Z</time>
      </trkpt>
      <trkpt lat="42.39378" lon="2.44539">
        <ele>1528.276</ele>
        <time>2014-05-31T12:50:31Z</time>
      </trkpt>
      <trkpt lat="42.3938" lon="2.44546">
        <ele>1527.716</ele>
        <time>2014-05-31T12:50:42Z</time>
      </trkpt>
      <trkpt lat="42.39381" lon="2.44547">
        <ele>1528.282</ele>
        <time>2014-05-31T12:51:10Z</time>
      </trkpt>
      <trkpt lat="42.39379" lon="2.44546">
        <ele>1528.241</ele>
        <time>2014-05-31T12:51:32Z</time>
      </trkpt>
      <trkpt lat="42.39378" lon="2.44547">
        <ele>1528.227</ele>
        <time>2014-05-31T12:52:08Z</time>
      </trkpt>
      <trkpt lat="42.39376" lon="2.44549">
        <ele>1530.183</ele>
        <time>2014-05-31T12:52:28Z</time>
      </trkpt>
      <trkpt lat="42.39376" lon="2.44548">
        <ele>1530.128</ele>
        <time>2014-05-31T12:52:32Z</time>
      </trkpt>
      <trkpt lat="42.39375" lon="2.4455">
        <ele>1528.689</ele>
        <time>2014-05-31T12:52:48Z</time>
      </trkpt>
      <trkpt lat="42.39377" lon="2.44549">
        <ele>1529.617</ele>
        <time>2014-05-31T12:53:01Z</time>
      </trkpt>
      <trkpt lat="42.39375" lon="2.44567">
        <ele>1529.108</ele>
        <time>2014-05-31T12:53:09Z</time>
      </trkpt>
      <trkpt lat="42.39371" lon="2.44575">
        <ele>1531.036</ele>
        <time>2014-05-31T12:53:11Z</time>
      </trkpt>
      <trkpt lat="42.39368" lon="2.44591">
        <ele>1527.259</ele>
        <time>2014-05-31T12:53:15Z</time>
      </trkpt>
      <trkpt lat="42.39368" lon="2.44595">
        <ele>1527.261</ele>
        <time>2014-05-31T12:53:16Z</time>
      </trkpt>
      <trkpt lat="42.39368" lon="2.44619">
        <ele>1526.741</ele>
        <time>2014-05-31T12:53:26Z</time>
      </trkpt>
      <trkpt lat="42.39374" lon="2.44645">
        <ele>1525.897</ele>
        <time>2014-05-31T12:53:38Z</time>
      </trkpt>
      <trkpt lat="42.39379" lon="2.44654">
        <ele>1526.286</ele>
        <time>2014-05-31T12:53:40Z</time>
      </trkpt>
      <trkpt lat="42.39386" lon="2.44663">
        <ele>1524.392</ele>
        <time>2014-05-31T12:53:42Z</time>
      </trkpt>
      <trkpt lat="42.39399" lon="2.44675">
        <ele>1527.798</ele>
        <time>2014-05-31T12:53:47Z</time>
      </trkpt>
      <trkpt lat="42.39401" lon="2.44678">
        <ele>1527.256</ele>
        <time>2014-05-31T12:53:48Z</time>
      </trkpt>
      <trkpt lat="42.39411" lon="2.44699">
        <ele>1529.159</ele>
        <time>2014-05-31T12:53:57Z</time>
      </trkpt>
      <trkpt lat="42.39418" lon="2.44713">
        <ele>1529.114</ele>
        <time>2014-05-31T12:54:02Z</time>
      </trkpt>
      <trkpt lat="42.39419" lon="2.44717">
        <ele>1529.108</ele>
        <time>2014-05-31T12:54:07Z</time>
      </trkpt>
      <trkpt lat="42.39426" lon="2.4473">
        <ele>1532.599</ele>
        <time>2014-05-31T12:54:20Z</time>
      </trkpt>
      <trkpt lat="42.39426" lon="2.44731">
        <ele>1532.052</ele>
        <time>2014-05-31T12:54:21Z</time>
      </trkpt>
      <trkpt lat="42.39428" lon="2.4474">
        <ele>1533.914</ele>
        <time>2014-05-31T12:54:32Z</time>
      </trkpt>
      <trkpt lat="42.39429" lon="2.44745">
        <ele>1533.064</ele>
        <time>2014-05-31T12:54:47Z</time>
      </trkpt>
      <trkpt lat="42.39427" lon="2.44745">
        <ele>1533.93</ele>
        <time>2014-05-31T12:55:26Z</time>
      </trkpt>
      <trkpt lat="42.39428" lon="2.44745">
        <ele>1534.479</ele>
        <time>2014-05-31T12:56:23Z</time>
      </trkpt>
      <trkpt lat="42.39431" lon="2.44745">
        <ele>1533.445</ele>
        <time>2014-05-31T12:57:09Z</time>
      </trkpt>
      <trkpt lat="42.3943" lon="2.44744">
        <ele>1533.461</ele>
        <time>2014-05-31T12:57:59Z</time>
      </trkpt>
      <trkpt lat="42.39431" lon="2.44741">
        <ele>1533.054</ele>
        <time>2014-05-31T12:58:42Z</time>
      </trkpt>
      <trkpt lat="42.39429" lon="2.44741">
        <ele>1533.056</ele>
        <time>2014-05-31T12:59:21Z</time>
      </trkpt>
      <trkpt lat="42.3943" lon="2.44743">
        <ele>1532.511</ele>
        <time>2014-05-31T13:00:17Z</time>
      </trkpt>
      <trkpt lat="42.39431" lon="2.44743">
        <ele>1532.508</ele>
        <time>2014-05-31T13:00:57Z</time>
      </trkpt>
      <trkpt lat="42.39432" lon="2.44743">
        <ele>1532.559</ele>
        <time>2014-05-31T13:01:27Z</time>
      </trkpt>
      <trkpt lat="42.39432" lon="2.44743">
        <ele>1532.022</ele>
        <time>2014-05-31T13:02:07Z</time>
      </trkpt>
      <trkpt lat="42.3943" lon="2.44745">
        <ele>1532.064</ele>
        <time>2014-05-31T13:02:37Z</time>
      </trkpt>
      <trkpt lat="42.3943" lon="2.44745">
        <ele>1532.054</ele>
        <time>2014-05-31T13:03:08Z</time>
      </trkpt>
      <trkpt lat="42.39428" lon="2.44743">
        <ele>1532.54</ele>
        <time>2014-05-31T13:03:45Z</time>
      </trkpt>
      <trkpt lat="42.39429" lon="2.44744">
        <ele>1533.419</ele>
        <time>2014-05-31T13:03:59Z</time>
      </trkpt>
      <trkpt lat="42.39428" lon="2.44748">
        <ele>1533.435</ele>
        <time>2014-05-31T13:04:02Z</time>
      </trkpt>
      <trkpt lat="42.39424" lon="2.44753">
        <ele>1532.061</ele>
        <time>2014-05-31T13:04:06Z</time>
      </trkpt>
      <trkpt lat="42.39415" lon="2.44757">
        <ele>1529.679</ele>
        <time>2014-05-31T13:04:10Z</time>
      </trkpt>
      <trkpt lat="42.39407" lon="2.44754">
        <ele>1527.705</ele>
        <time>2014-05-31T13:04:13Z</time>
      </trkpt>
      <trkpt lat="42.39404" lon="2.44749">
        <ele>1525.825</ele>
        <time>2014-05-31T13:04:16Z</time>
      </trkpt>
      <trkpt lat="42.39402" lon="2.44748">
        <ele>1524.808</ele>
        <time>2014-05-31T13:04:18Z</time>
      </trkpt>
      <trkpt lat="42.39395" lon="2.44747">
        <ele>1522.481</ele>
        <time>2014-05-31T13:04:23Z</time>
      </trkpt>
      <trkpt lat="42.39388" lon="2.44742">
        <ele>1519.574</ele>
        <time>2014-05-31T13:04:29Z</time>
      </trkpt>
      <trkpt lat="42.39386" lon="2.44742">
        <ele>1519.596</ele>
        <time>2014-05-31T13:04:30Z</time>
      </trkpt>
      <trkpt lat="42.39384" lon="2.44741">
        <ele>1519.076</ele>
        <time>2014-05-31T13:04:32Z</time>
      </trkpt>
      <trkpt lat="42.39377" lon="2.44732">
        <ele>1514.772</ele>
        <time>2014-05-31T13:04:38Z</time>
      </trkpt>
      <trkpt lat="42.39376" lon="2.44729">
        <ele>1514.231</ele>
        <time>2014-05-31T13:04:39Z</time>
      </trkpt>
      <trkpt lat="42.39376" lon="2.44726">
        <ele>1514.217</ele>
        <time>2014-05-31T13:04:40Z</time>
      </trkpt>
      <trkpt lat="42.39375" lon="2.44716">
        <ele>1513.773</ele>
        <time>2014-05-31T13:04:43Z</time>
      </trkpt>
      <trkpt lat="42.39367" lon="2.4469">
        <ele>1513.261</ele>
        <time>2014-05-31T13:04:54Z</time>
      </trkpt>
      <trkpt lat="42.39366" lon="2.44683">
        <ele>1513.721</ele>
        <time>2014-05-31T13:04:58Z</time>
      </trkpt>
      <trkpt lat="42.39364" lon="2.44678">
        <ele>1513.713</ele>
        <time>2014-05-31T13:05:01Z</time>
      </trkpt>
      <trkpt lat="42.39364" lon="2.44667">
        <ele>1516.108</ele>
        <time>2014-05-31T13:05:13Z</time>
      </trkpt>
      <trkpt lat="42.39358" lon="2.44655">
        <ele>1517.67</ele>
        <time>2014-05-31T13:05:29Z</time>
      </trkpt>
      <trkpt lat="42.39356" lon="2.44647">
        <ele>1517.673</ele>
        <time>2014-05-31T13:05:43Z</time>
      </trkpt>
      <trkpt lat="42.3935" lon="2.44635">
        <ele>1518.535</ele>
        <time>2014-05-31T13:05:55Z</time>
      </trkpt>
      <trkpt lat="42.39347" lon="2.44625">
        <ele>1519.075</ele>
        <time>2014-05-31T13:06:09Z</time>
      </trkpt>
      <trkpt lat="42.39346" lon="2.44625">
        <ele>1518.141</ele>
        <time>2014-05-31T13:06:21Z</time>
      </trkpt>
      <trkpt lat="42.39345" lon="2.44625">
        <ele>1518.57</ele>
        <time>2014-05-31T13:06:26Z</time>
      </trkpt>
      <trkpt lat="42.39329" lon="2.44606">
        <ele>1515.216</ele>
        <time>2014-05-31T13:06:33Z</time>
      </trkpt>
      <trkpt lat="42.3931" lon="2.44591">
        <ele>1511.882</ele>
        <time>2014-05-31T13:06:40Z</time>
      </trkpt>
      <trkpt lat="42.39304" lon="2.44591">
        <ele>1510.816</ele>
        <time>2014-05-31T13:06:53Z</time>
      </trkpt>
      <trkpt lat="42.39298" lon="2.44587">
        <ele>1509.476</ele>
        <time>2014-05-31T13:06:56Z</time>
      </trkpt>
      <trkpt lat="42.3929" lon="2.44581">
        <ele>1508.413</ele>
        <time>2014-05-31T13:07:00Z</time>
      </trkpt>
      <trkpt lat="42.39273" lon="2.44564">
        <ele>1504.608</ele>
        <time>2014-05-31T13:07:06Z</time>
      </trkpt>
      <trkpt lat="42.39269" lon="2.4456">
        <ele>1503.695</ele>
        <time>2014-05-31T13:07:07Z</time>
      </trkpt>
      <trkpt lat="42.3926" lon="2.44554">
        <ele>1503.298</ele>
        <time>2014-05-31T13:07:09Z</time>
      </trkpt>
      <trkpt lat="42.3925" lon="2.44546">
        <ele>1500.87</ele>
        <time>2014-05-31T13:07:12Z</time>
      </trkpt>
      <trkpt lat="42.39241" lon="2.44539">
        <ele>1499.83</ele>
        <time>2014-05-31T13:07:14Z</time>
      </trkpt>
      <trkpt lat="42.39229" lon="2.44531">
        <ele>1496.976</ele>
        <time>2014-05-31T13:07:17Z</time>
      </trkpt>
      <trkpt lat="42.39221" lon="2.44524">
        <ele>1494.015</ele>
        <time>2014-05-31T13:07:21Z</time>
      </trkpt>
      <trkpt lat="42.39222" lon="2.44532">
        <ele>1491.121</ele>
        <time>2014-05-31T13:07:27Z</time>
      </trkpt>
      <trkpt lat="42.39232" lon="2.44556">
        <ele>1489.257</ele>
        <time>2014-05-31T13:07:31Z</time>
      </trkpt>
      <trkpt lat="42.39239" lon="2.44581">
        <ele>1486.861</ele>
        <time>2014-05-31T13:07:34Z</time>
      </trkpt>
      <trkpt lat="42.39249" lon="2.44608">
        <ele>1482.521</ele>
        <time>2014-05-31T13:07:38Z</time>
      </trkpt>
      <trkpt lat="42.39256" lon="2.44641">
        <ele>1479.613</ele>
        <time>2014-05-31T13:07:42Z</time>
      </trkpt>
      <trkpt lat="42.39263" lon="2.44664">
        <ele>1475.808</ele>
        <time>2014-05-31T13:07:46Z</time>
      </trkpt>
      <trkpt lat="42.39267" lon="2.44677">
        <ele>1473.84</ele>
        <time>2014-05-31T13:07:51Z</time>
      </trkpt>
      <trkpt lat="42.39266" lon="2.44681">
        <ele>1473.443</ele>
        <time>2014-05-31T13:08:05Z</time>
      </trkpt>
      <trkpt lat="42.39267" lon="2.44682">
        <ele>1473.885</ele>
        <time>2014-05-31T13:08:11Z</time>
      </trkpt>
      <trkpt lat="42.39268" lon="2.44702">
        <ele>1470.535</ele>
        <time>2014-05-31T13:08:19Z</time>
      </trkpt>
      <trkpt lat="42.39271" lon="2.44711">
        <ele>1467.661</ele>
        <time>2014-05-31T13:08:24Z</time>
      </trkpt>
      <trkpt lat="42.39271" lon="2.44713">
        <ele>1467.14</ele>
        <time>2014-05-31T13:08:25Z</time>
      </trkpt>
      <trkpt lat="42.39272" lon="2.44722">
        <ele>1464.256</ele>
        <time>2014-05-31T13:08:31Z</time>
      </trkpt>
      <trkpt lat="42.39275" lon="2.44738">
        <ele>1461.312</ele>
        <time>2014-05-31T13:08:37Z</time>
      </trkpt>
      <trkpt lat="42.39278" lon="2.44748">
        <ele>1460.921</ele>
        <time>2014-05-31T13:08:41Z</time>
      </trkpt>
      <trkpt lat="42.39279" lon="2.44753">
        <ele>1459.441</ele>
        <time>2014-05-31T13:08:43Z</time>
      </trkpt>
      <trkpt lat="42.39278" lon="2.44765">
        <ele>1458.005</ele>
        <time>2014-05-31T13:08:46Z</time>
      </trkpt>
      <trkpt lat="42.39278" lon="2.44772">
        <ele>1457.508</ele>
        <time>2014-05-31T13:08:48Z</time>
      </trkpt>
      <trkpt lat="42.39285" lon="2.44788">
        <ele>1457.086</ele>
        <time>2014-05-31T13:08:54Z</time>
      </trkpt>
      <trkpt lat="42.39291" lon="2.44798">
        <ele>1455.649</ele>
        <time>2014-05-31T13:09:05Z</time>
      </trkpt>
      <trkpt lat="42.39296" lon="2.44817">
        <ele>1451.711</ele>
        <time>2014-05-31T13:09:15Z</time>
      </trkpt>
      <trkpt lat="42.393" lon="2.44826">
        <ele>1449.391</ele>
        <time>2014-05-31T13:09:20Z</time>
      </trkpt>
      <trkpt lat="42.39301" lon="2.4483">
        <ele>1447.497</ele>
        <time>2014-05-31T13:09:24Z</time>
      </trkpt>
      <trkpt lat="42.39306" lon="2.44834">
        <ele>1445.586</ele>
        <time>2014-05-31T13:09:29Z</time>
      </trkpt>
      <trkpt lat="42.39307" lon="2.4484">
        <ele>1444.512</ele>
        <time>2014-05-31T13:09:31Z</time>
      </trkpt>
      <trkpt lat="42.39317" lon="2.44852">
        <ele>1442.198</ele>
        <time>2014-05-31T13:09:36Z</time>
      </trkpt>
      <trkpt lat="42.39319" lon="2.44862">
        <ele>1439.754</ele>
        <time>2014-05-31T13:09:40Z</time>
      </trkpt>
      <trkpt lat="42.39327" lon="2.44873">
        <ele>1438.356</ele>
        <time>2014-05-31T13:09:43Z</time>
      </trkpt>
      <trkpt lat="42.39347" lon="2.44897">
        <ele>1433.911</ele>
        <time>2014-05-31T13:09:52Z</time>
      </trkpt>
      <trkpt lat="42.3935" lon="2.44904">
        <ele>1432.008</ele>
        <time>2014-05-31T13:09:56Z</time>
      </trkpt>
      <trkpt lat="42.39355" lon="2.44916">
        <ele>1430.619</ele>
        <time>2014-05-31T13:10:04Z</time>
      </trkpt>
      <trkpt lat="42.39354" lon="2.44918">
        <ele>1430.692</ele>
        <time>2014-05-31T13:10:32Z</time>
      </trkpt>
      <trkpt lat="42.39368" lon="2.44927">
        <ele>1429.174</ele>
        <time>2014-05-31T13:10:56Z</time>
      </trkpt>
      <trkpt lat="42.39368" lon="2.44928">
        <ele>1428.294</ele>
        <time>2014-05-31T13:10:58Z</time>
      </trkpt>
      <trkpt lat="42.3937" lon="2.44931">
        <ele>1427.79</ele>
        <time>2014-05-31T13:11:09Z</time>
      </trkpt>
      <trkpt lat="42.39373" lon="2.44934">
        <ele>1425.899</ele>
        <time>2014-05-31T13:11:14Z</time>
      </trkpt>
      <trkpt lat="42.39384" lon="2.44946">
        <ele>1422.985</ele>
        <time>2014-05-31T13:11:23Z</time>
      </trkpt>
      <trkpt lat="42.39387" lon="2.44953">
        <ele>1419.561</ele>
        <time>2014-05-31T13:11:30Z</time>
      </trkpt>
      <trkpt lat="42.39391" lon="2.44964">
        <ele>1416.696</ele>
        <time>2014-05-31T13:11:37Z</time>
      </trkpt>
      <trkpt lat="42.39392" lon="2.44967">
        <ele>1415.731</ele>
        <time>2014-05-31T13:11:39Z</time>
      </trkpt>
      <trkpt lat="42.39396" lon="2.4497">
        <ele>1413.324</ele>
        <time>2014-05-31T13:11:44Z</time>
      </trkpt>
      <trkpt lat="42.39408" lon="2.44987">
        <ele>1410.408</ele>
        <time>2014-05-31T13:11:51Z</time>
      </trkpt>
      <trkpt lat="42.39408" lon="2.44991">
        <ele>1409.473</ele>
        <time>2014-05-31T13:11:53Z</time>
      </trkpt>
      <trkpt lat="42.39409" lon="2.44995">
        <ele>1408.586</ele>
        <time>2014-05-31T13:11:55Z</time>
      </trkpt>
      <trkpt lat="42.39416" lon="2.45004">
        <ele>1407.018</ele>
        <time>2014-05-31T13:12:07Z</time>
      </trkpt>
      <trkpt lat="42.39429" lon="2.45027">
        <ele>1407.088</ele>
        <time>2014-05-31T13:12:53Z</time>
      </trkpt>
      <trkpt lat="42.39431" lon="2.4503">
        <ele>1406.124</ele>
        <time>2014-05-31T13:13:23Z</time>
      </trkpt>
      <trkpt lat="42.39432" lon="2.4503">
        <ele>1404.113</ele>
        <time>2014-05-31T13:13:29Z</time>
      </trkpt>
      <trkpt lat="42.39435" lon="2.45024">
        <ele>1406.139</ele>
        <time>2014-05-31T13:13:48Z</time>
      </trkpt>
      <trkpt lat="42.39439" lon="2.45029">
        <ele>1404.155</ele>
        <time>2014-05-31T13:13:59Z</time>
      </trkpt>
      <trkpt lat="42.39447" lon="2.45038">
        <ele>1401.754</ele>
        <time>2014-05-31T13:14:05Z</time>
      </trkpt>
      <trkpt lat="42.39449" lon="2.45041">
        <ele>1398.956</ele>
        <time>2014-05-31T13:14:09Z</time>
      </trkpt>
      <trkpt lat="42.39453" lon="2.45048">
        <ele>1396.411</ele>
        <time>2014-05-31T13:14:13Z</time>
      </trkpt>
      <trkpt lat="42.39458" lon="2.45053">
        <ele>1394.108</ele>
        <time>2014-05-31T13:14:16Z</time>
      </trkpt>
      <trkpt lat="42.39466" lon="2.45064">
        <ele>1391.739</ele>
        <time>2014-05-31T13:14:22Z</time>
      </trkpt>
      <trkpt lat="42.39474" lon="2.45076">
        <ele>1389.782</ele>
        <time>2014-05-31T13:14:27Z</time>
      </trkpt>
      <trkpt lat="42.3948" lon="2.45084">
        <ele>1387.394</ele>
        <time>2014-05-31T13:14:31Z</time>
      </trkpt>
      <trkpt lat="42.39488" lon="2.45094">
        <ele>1383.544</ele>
        <time>2014-05-31T13:14:40Z</time>
      </trkpt>
      <trkpt lat="42.39488" lon="2.45095">
        <ele>1383.52</ele>
        <time>2014-05-31T13:14:41Z</time>
      </trkpt>
      <trkpt lat="42.39488" lon="2.45099">
        <ele>1381.159</ele>
        <time>2014-05-31T13:14:45Z</time>
      </trkpt>
      <trkpt lat="42.39494" lon="2.45109">
        <ele>1378.285</ele>
        <time>2014-05-31T13:14:50Z</time>
      </trkpt>
      <trkpt lat="42.39498" lon="2.45114">
        <ele>1376.871</ele>
        <time>2014-05-31T13:14:53Z</time>
      </trkpt>
      <trkpt lat="42.39501" lon="2.45121">
        <ele>1374.398</ele>
        <time>2014-05-31T13:14:58Z</time>
      </trkpt>
      <trkpt lat="42.39504" lon="2.45131">
        <ele>1371.015</ele>
        <time>2014-05-31T13:15:03Z</time>
      </trkpt>
      <trkpt lat="42.39507" lon="2.45134">
        <ele>1369.126</ele>
        <time>2014-05-31T13:15:05Z</time>
      </trkpt>
      <trkpt lat="42.3951" lon="2.45139">
        <ele>1367.108</ele>
        <time>2014-05-31T13:15:07Z</time>
      </trkpt>
      <trkpt lat="42.39516" lon="2.45148">
        <ele>1363.853</ele>
        <time>2014-05-31T13:15:12Z</time>
      </trkpt>
      <trkpt lat="42.39519" lon="2.45154">
        <ele>1360.976</ele>
        <time>2014-05-31T13:15:16Z</time>
      </trkpt>
      <trkpt lat="42.3952" lon="2.45155">
        <ele>1360.458</ele>
        <time>2014-05-31T13:15:17Z</time>
      </trkpt>
      <trkpt lat="42.39523" lon="2.45157">
        <ele>1359.468</ele>
        <time>2014-05-31T13:15:19Z</time>
      </trkpt>
      <trkpt lat="42.39528" lon="2.45162">
        <ele>1357.024</ele>
        <time>2014-05-31T13:15:22Z</time>
      </trkpt>
      <trkpt lat="42.39535" lon="2.4517">
        <ele>1353.743</ele>
        <time>2014-05-31T13:15:27Z</time>
      </trkpt>
      <trkpt lat="42.39536" lon="2.4517">
        <ele>1353.719</ele>
        <time>2014-05-31T13:15:28Z</time>
      </trkpt>
      <trkpt lat="42.39555" lon="2.45189">
        <ele>1349.865</ele>
        <time>2014-05-31T13:15:37Z</time>
      </trkpt>
      <trkpt lat="42.39562" lon="2.45193">
        <ele>1347.466</ele>
        <time>2014-05-31T13:15:40Z</time>
      </trkpt>
      <trkpt lat="42.39571" lon="2.452">
        <ele>1344.129</ele>
        <time>2014-05-31T13:15:43Z</time>
      </trkpt>
      <trkpt lat="42.39577" lon="2.45205">
        <ele>1344.121</ele>
        <time>2014-05-31T13:15:46Z</time>
      </trkpt>
      <trkpt lat="42.39591" lon="2.45213">
        <ele>1344.108</ele>
        <time>2014-05-31T13:16:03Z</time>
      </trkpt>
      <trkpt lat="42.39598" lon="2.45213">
        <ele>1345.06</ele>
        <time>2014-05-31T13:16:24Z</time>
      </trkpt>
      <trkpt lat="42.39607" lon="2.4521">
        <ele>1343.183</ele>
        <time>2014-05-31T13:16:41Z</time>
      </trkpt>
      <trkpt lat="42.39609" lon="2.45214">
        <ele>1340.215</ele>
        <time>2014-05-31T13:16:45Z</time>
      </trkpt>
      <trkpt lat="42.39614" lon="2.45221">
        <ele>1336.455</ele>
        <time>2014-05-31T13:16:49Z</time>
      </trkpt>
      <trkpt lat="42.39616" lon="2.45222">
        <ele>1336.421</ele>
        <time>2014-05-31T13:16:50Z</time>
      </trkpt>
      <trkpt lat="42.39621" lon="2.45229">
        <ele>1332.57</ele>
        <time>2014-05-31T13:16:56Z</time>
      </trkpt>
      <trkpt lat="42.39624" lon="2.45231">
        <ele>1331.156</ele>
        <time>2014-05-31T13:16:58Z</time>
      </trkpt>
      <trkpt lat="42.39631" lon="2.45238">
        <ele>1326.382</ele>
        <time>2014-05-31T13:17:04Z</time>
      </trkpt>
      <trkpt lat="42.39635" lon="2.45245">
        <ele>1322.939</ele>
        <time>2014-05-31T13:17:09Z</time>
      </trkpt>
      <trkpt lat="42.3964" lon="2.4525">
        <ele>1321.001</ele>
        <time>2014-05-31T13:17:12Z</time>
      </trkpt>
      <trkpt lat="42.39644" lon="2.45254">
        <ele>1320.521</ele>
        <time>2014-05-31T13:17:14Z</time>
      </trkpt>
      <trkpt lat="42.39651" lon="2.45262">
        <ele>1317.108</ele>
        <time>2014-05-31T13:17:19Z</time>
      </trkpt>
      <trkpt lat="42.39674" lon="2.45268">
        <ele>1312.877</ele>
        <time>2014-05-31T13:17:28Z</time>
      </trkpt>
      <trkpt lat="42.39684" lon="2.45268">
        <ele>1309.45</ele>
        <time>2014-05-31T13:17:31Z</time>
      </trkpt>
      <trkpt lat="42.39691" lon="2.45275">
        <ele>1308.552</ele>
        <time>2014-05-31T13:17:34Z</time>
      </trkpt>
      <trkpt lat="42.39707" lon="2.45296">
        <ele>1307.552</ele>
        <time>2014-05-31T13:17:45Z</time>
      </trkpt>
      <trkpt lat="42.39708" lon="2.45297">
        <ele>1308.058</ele>
        <time>2014-05-31T13:18:01Z</time>
      </trkpt>
      <trkpt lat="42.39711" lon="2.45299">
        <ele>1307.147</ele>
        <time>2014-05-31T13:18:20Z</time>
      </trkpt>
      <trkpt lat="42.39713" lon="2.453">
        <ele>1307.143</ele>
        <time>2014-05-31T13:18:30Z</time>
      </trkpt>
      <trkpt lat="42.39709" lon="2.453">
        <ele>1306.199</ele>
        <time>2014-05-31T13:19:00Z</time>
      </trkpt>
      <trkpt lat="42.39708" lon="2.45301">
        <ele>1306.122</ele>
        <time>2014-05-31T13:19:10Z</time>
      </trkpt>
      <trkpt lat="42.39714" lon="2.45299">
        <ele>1307.162</ele>
        <time>2014-05-31T13:19:21Z</time>
      </trkpt>
      <trkpt lat="42.39716" lon="2.45297">
        <ele>1307.108</ele>
        <time>2014-05-31T13:19:47Z</time>
      </trkpt>
      <trkpt lat="42.39718" lon="2.45296">
        <ele>1306.608</ele>
        <time>2014-05-31T13:19:52Z</time>
      </trkpt>
      <trkpt lat="42.39734" lon="2.45303">
        <ele>1308.066</ele>
        <time>2014-05-31T13:20:03Z</time>
      </trkpt>
      <trkpt lat="42.3974" lon="2.45309">
        <ele>1307.569</ele>
        <time>2014-05-31T13:20:11Z</time>
      </trkpt>
      <trkpt lat="42.39742" lon="2.45312">
        <ele>1306.121</ele>
        <time>2014-05-31T13:20:34Z</time>
      </trkpt>
      <trkpt lat="42.3976" lon="2.45332">
        <ele>1305.171</ele>
        <time>2014-05-31T13:20:45Z</time>
      </trkpt>
      <trkpt lat="42.39783" lon="2.45369">
        <ele>1306.127</ele>
        <time>2014-05-31T13:20:58Z</time>
      </trkpt>
      <trkpt lat="42.39799" lon="2.45404">
        <ele>1308.036</ele>
        <time>2014-05-31T13:21:12Z</time>
      </trkpt>
      <trkpt lat="42.398" lon="2.45403">
        <ele>1308.022</ele>
        <time>2014-05-31T13:21:24Z</time>
      </trkpt>
      <trkpt lat="42.398" lon="2.45407">
        <ele>1308.588</ele>
        <time>2014-05-31T13:21:40Z</time>
      </trkpt>
      <trkpt lat="42.39816" lon="2.45433">
        <ele>1304.256</ele>
        <time>2014-05-31T13:21:50Z</time>
      </trkpt>
      <trkpt lat="42.39818" lon="2.45436">
        <ele>1304.259</ele>
        <time>2014-05-31T13:21:51Z</time>
      </trkpt>
      <trkpt lat="42.3982" lon="2.45442">
        <ele>1302.714</ele>
        <time>2014-05-31T13:21:53Z</time>
      </trkpt>
      <trkpt lat="42.39826" lon="2.45458">
        <ele>1300.808</ele>
        <time>2014-05-31T13:21:56Z</time>
      </trkpt>
      <trkpt lat="42.39835" lon="2.45492">
        <ele>1294.699</ele>
        <time>2014-05-31T13:22:00Z</time>
      </trkpt>
      <trkpt lat="42.39837" lon="2.45502">
        <ele>1293.612</ele>
        <time>2014-05-31T13:22:01Z</time>
      </trkpt>
      <trkpt lat="42.39839" lon="2.45522">
        <ele>1291.234</ele>
        <time>2014-05-31T13:22:03Z</time>
      </trkpt>
      <trkpt lat="42.39848" lon="2.45556">
        <ele>1285.924</ele>
        <time>2014-05-31T13:22:07Z</time>
      </trkpt>
      <trkpt lat="42.39858" lon="2.45578">
        <ele>1280.67</ele>
        <time>2014-05-31T13:22:10Z</time>
      </trkpt>
      <trkpt lat="42.39871" lon="2.45602">
        <ele>1279.229</ele>
        <time>2014-05-31T13:22:13Z</time>
      </trkpt>
      <trkpt lat="42.39902" lon="2.45638">
        <ele>1279.775</ele>
        <time>2014-05-31T13:22:23Z</time>
      </trkpt>
      <trkpt lat="42.39916" lon="2.4565">
        <ele>1278.711</ele>
        <time>2014-05-31T13:22:31Z</time>
      </trkpt>
      <trkpt lat="42.39918" lon="2.45653">
        <ele>1277.233</ele>
        <time>2014-05-31T13:22:33Z</time>
      </trkpt>
      <trkpt lat="42.39916" lon="2.45659">
        <ele>1276.323</ele>
        <time>2014-05-31T13:22:37Z</time>
      </trkpt>
      <trkpt lat="42.39911" lon="2.45678">
        <ele>1273.915</ele>
        <time>2014-05-31T13:22:46Z</time>
      </trkpt>
      <trkpt lat="42.3991" lon="2.4568">
        <ele>1273.408</ele>
        <time>2014-05-31T13:22:47Z</time>
      </trkpt>
      <trkpt lat="42.39904" lon="2.45689">
        <ele>1271.087</ele>
        <time>2014-05-31T13:22:51Z</time>
      </trkpt>
      <trkpt lat="42.399" lon="2.45699">
        <ele>1270.09</ele>
        <time>2014-05-31T13:22:53Z</time>
      </trkpt>
      <trkpt lat="42.39896" lon="2.45712">
        <ele>1268.692</ele>
        <time>2014-05-31T13:22:55Z</time>
      </trkpt>
      <trkpt lat="42.39896" lon="2.45737">
        <ele>1264.332</ele>
        <time>2014-05-31T13:22:59Z</time>
      </trkpt>
      <trkpt lat="42.39905" lon="2.45755">
        <ele>1261.478</ele>
        <time>2014-05-31T13:23:04Z</time>
      </trkpt>
      <trkpt lat="42.39919" lon="2.45769">
        <ele>1261.957</ele>
        <time>2014-05-31T13:23:15Z</time>
      </trkpt>
      <trkpt lat="42.39941" lon="2.45787">
        <ele>1259.993</ele>
        <time>2014-05-31T13:23:23Z</time>
      </trkpt>
      <trkpt lat="42.39943" lon="2.45791">
        <ele>1259.039</ele>
        <time>2014-05-31T13:23:25Z</time>
      </trkpt>
      <trkpt lat="42.39941" lon="2.45801">
        <ele>1257.515</ele>
        <time>2014-05-31T13:23:28Z</time>
      </trkpt>
      <trkpt lat="42.39938" lon="2.45807">
        <ele>1256.165</ele>
        <time>2014-05-31T13:23:31Z</time>
      </trkpt>
      <trkpt lat="42.39931" lon="2.45813">
        <ele>1253.711</ele>
        <time>2014-05-31T13:23:35Z</time>
      </trkpt>
      <trkpt lat="42.39928" lon="2.45813">
        <ele>1252.708</ele>
        <time>2014-05-31T13:23:36Z</time>
      </trkpt>
      <trkpt lat="42.39918" lon="2.45812">
        <ele>1251.395</ele>
        <time>2014-05-31T13:23:38Z</time>
      </trkpt>
      <trkpt lat="42.39893" lon="2.45805">
        <ele>1248.478</ele>
        <time>2014-05-31T13:23:42Z</time>
      </trkpt>
      <trkpt lat="42.39867" lon="2.45795">
        <ele>1247.08</ele>
        <time>2014-05-31T13:23:46Z</time>
      </trkpt>
      <trkpt lat="42.39856" lon="2.45791">
        <ele>1243.11</ele>
        <time>2014-05-31T13:23:48Z</time>
      </trkpt>
      <trkpt lat="42.39845" lon="2.45787">
        <ele>1241.256</ele>
        <time>2014-05-31T13:23:51Z</time>
      </trkpt>
      <trkpt lat="42.39841" lon="2.45785">
        <ele>1239.365</ele>
        <time>2014-05-31T13:23:52Z</time>
      </trkpt>
      <trkpt lat="42.3982" lon="2.45773">
        <ele>1235.981</ele>
        <time>2014-05-31T13:23:56Z</time>
      </trkpt>
      <trkpt lat="42.39803" lon="2.45762">
        <ele>1231.697</ele>
        <time>2014-05-31T13:23:58Z</time>
      </trkpt>
      <trkpt lat="42.39796" lon="2.45757">
        <ele>1231.687</ele>
        <time>2014-05-31T13:23:59Z</time>
      </trkpt>
      <trkpt lat="42.39776" lon="2.45742">
        <ele>1228.742</ele>
        <time>2014-05-31T13:24:02Z</time>
      </trkpt>
      <trkpt lat="42.39753" lon="2.45724">
        <ele>1226.326</ele>
        <time>2014-05-31T13:24:11Z</time>
      </trkpt>
      <trkpt lat="42.3975" lon="2.45721">
        <ele>1228.208</ele>
        <time>2014-05-31T13:24:20Z</time>
      </trkpt>
      <trkpt lat="42.3975" lon="2.45716">
        <ele>1226.392</ele>
        <time>2014-05-31T13:24:34Z</time>
      </trkpt>
      <trkpt lat="42.3975" lon="2.45713">
        <ele>1224.495</ele>
        <time>2014-05-31T13:25:06Z</time>
      </trkpt>
      <trkpt lat="42.39749" lon="2.45713">
        <ele>1224.497</ele>
        <time>2014-05-31T13:25:13Z</time>
      </trkpt>
      <trkpt lat="42.39744" lon="2.45709">
        <ele>1223.417</ele>
        <time>2014-05-31T13:25:16Z</time>
      </trkpt>
      <trkpt lat="42.39721" lon="2.4566">
        <ele>1220.543</ele>
        <time>2014-05-31T13:25:26Z</time>
      </trkpt>
      <trkpt lat="42.39715" lon="2.45653">
        <ele>1220.542</ele>
        <time>2014-05-31T13:25:31Z</time>
      </trkpt>
      <trkpt lat="42.39698" lon="2.45653">
        <ele>1219.158</ele>
        <time>2014-05-31T13:25:40Z</time>
      </trkpt>
      <trkpt lat="42.39683" lon="2.45661">
        <ele>1215.254</ele>
        <time>2014-05-31T13:25:44Z</time>
      </trkpt>
      <trkpt lat="42.39679" lon="2.45662">
        <ele>1214.331</ele>
        <time>2014-05-31T13:25:45Z</time>
      </trkpt>
      <trkpt lat="42.39669" lon="2.45664">
        <ele>1212.861</ele>
        <time>2014-05-31T13:25:47Z</time>
      </trkpt>
      <trkpt lat="42.39665" lon="2.45665">
        <ele>1210.407</ele>
        <time>2014-05-31T13:25:48Z</time>
      </trkpt>
      <trkpt lat="42.39641" lon="2.45657">
        <ele>1206.108</ele>
        <time>2014-05-31T13:25:52Z</time>
      </trkpt>
      <trkpt lat="42.39617" lon="2.45646">
        <ele>1200.397</ele>
        <time>2014-05-31T13:25:55Z</time>
      </trkpt>
      <trkpt lat="42.39601" lon="2.45637">
        <ele>1196.54</ele>
        <time>2014-05-31T13:25:58Z</time>
      </trkpt>
      <trkpt lat="42.39596" lon="2.45635">
        <ele>1196.052</ele>
        <time>2014-05-31T13:26:00Z</time>
      </trkpt>
      <trkpt lat="42.39594" lon="2.4565">
        <ele>1192.232</ele>
        <time>2014-05-31T13:26:06Z</time>
      </trkpt>
      <trkpt lat="42.39602" lon="2.45664">
        <ele>1193.688</ele>
        <time>2014-05-31T13:26:10Z</time>
      </trkpt>
      <trkpt lat="42.39623" lon="2.45693">
        <ele>1193.667</ele>
        <time>2014-05-31T13:26:25Z</time>
      </trkpt>
      <trkpt lat="42.39624" lon="2.45695">
        <ele>1193.633</ele>
        <time>2014-05-31T13:26:39Z</time>
      </trkpt>
      <trkpt lat="42.39626" lon="2.457">
        <ele>1193.119</ele>
        <time>2014-05-31T13:26:43Z</time>
      </trkpt>
      <trkpt lat="42.39634" lon="2.45712">
        <ele>1191.292</ele>
        <time>2014-05-31T13:26:47Z</time>
      </trkpt>
      <trkpt lat="42.39657" lon="2.4575">
        <ele>1187.873</ele>
        <time>2014-05-31T13:26:59Z</time>
      </trkpt>
      <trkpt lat="42.39666" lon="2.4578">
        <ele>1184.02</ele>
        <time>2014-05-31T13:27:03Z</time>
      </trkpt>
      <trkpt lat="42.39673" lon="2.45811">
        <ele>1179.708</ele>
        <time>2014-05-31T13:27:07Z</time>
      </trkpt>
      <trkpt lat="42.39674" lon="2.4584">
        <ele>1174.423</ele>
        <time>2014-05-31T13:27:10Z</time>
      </trkpt>
      <trkpt lat="42.3967" lon="2.45869">
        <ele>1168.196</ele>
        <time>2014-05-31T13:27:15Z</time>
      </trkpt>
      <trkpt lat="42.39672" lon="2.45881">
        <ele>1165.398</ele>
        <time>2014-05-31T13:27:18Z</time>
      </trkpt>
      <trkpt lat="42.39672" lon="2.45893">
        <ele>1163.378</ele>
        <time>2014-05-31T13:27:21Z</time>
      </trkpt>
      <trkpt lat="42.39664" lon="2.45903">
        <ele>1160.094</ele>
        <time>2014-05-31T13:27:25Z</time>
      </trkpt>
      <trkpt lat="42.39658" lon="2.45905">
        <ele>1158.513</ele>
        <time>2014-05-31T13:27:27Z</time>
      </trkpt>
      <trkpt lat="42.39647" lon="2.45914">
        <ele>1155.629</ele>
        <time>2014-05-31T13:27:32Z</time>
      </trkpt>
      <trkpt lat="42.39644" lon="2.45921">
        <ele>1153.295</ele>
        <time>2014-05-31T13:27:36Z</time>
      </trkpt>
      <trkpt lat="42.39639" lon="2.45935">
        <ele>1150.892</ele>
        <time>2014-05-31T13:27:45Z</time>
      </trkpt>
      <trkpt lat="42.39633" lon="2.45949">
        <ele>1147.973</ele>
        <time>2014-05-31T13:27:52Z</time>
      </trkpt>
      <trkpt lat="42.39624" lon="2.45964">
        <ele>1144.12</ele>
        <time>2014-05-31T13:28:00Z</time>
      </trkpt>
      <trkpt lat="42.39623" lon="2.45966">
        <ele>1144.108</ele>
        <time>2014-05-31T13:28:01Z</time>
      </trkpt>
      <trkpt lat="42.39611" lon="2.45973">
        <ele>1140.723</ele>
        <time>2014-05-31T13:28:09Z</time>
      </trkpt>
      <trkpt lat="42.39606" lon="2.45975">
        <ele>1139.346</ele>
        <time>2014-05-31T13:28:12Z</time>
      </trkpt>
      <trkpt lat="42.39603" lon="2.45977">
        <ele>1138.828</ele>
        <time>2014-05-31T13:28:14Z</time>
      </trkpt>
      <trkpt lat="42.39599" lon="2.45998">
        <ele>1135.478</ele>
        <time>2014-05-31T13:28:20Z</time>
      </trkpt>
      <trkpt lat="42.39598" lon="2.46012">
        <ele>1134.014</ele>
        <time>2014-05-31T13:28:22Z</time>
      </trkpt>
      <trkpt lat="42.3959" lon="2.46041">
        <ele>1129.793</ele>
        <time>2014-05-31T13:28:25Z</time>
      </trkpt>
      <trkpt lat="42.39582" lon="2.46063">
        <ele>1128.719</ele>
        <time>2014-05-31T13:28:27Z</time>
      </trkpt>
      <trkpt lat="42.39573" lon="2.46085">
        <ele>1125.835</ele>
        <time>2014-05-31T13:28:29Z</time>
      </trkpt>
      <trkpt lat="42.39565" lon="2.46107">
        <ele>1123.086</ele>
        <time>2014-05-31T13:28:32Z</time>
      </trkpt>
      <trkpt lat="42.39548" lon="2.46124">
        <ele>1118.26</ele>
        <time>2014-05-31T13:28:36Z</time>
      </trkpt>
      <trkpt lat="42.39538" lon="2.46123">
        <ele>1117.726</ele>
        <time>2014-05-31T13:28:38Z</time>
      </trkpt>
      <trkpt lat="42.39524" lon="2.46118">
        <ele>1115.308</ele>
        <time>2014-05-31T13:28:41Z</time>
      </trkpt>
      <trkpt lat="42.39516" lon="2.46116">
        <ele>1113.852</ele>
        <time>2014-05-31T13:28:43Z</time>
      </trkpt>
      <trkpt lat="42.39503" lon="2.46105">
        <ele>1111.425</ele>
        <time>2014-05-31T13:28:47Z</time>
      </trkpt>
      <trkpt lat="42.39498" lon="2.461">
        <ele>1110.067</ele>
        <time>2014-05-31T13:28:48Z</time>
      </trkpt>
      <trkpt lat="42.3949" lon="2.46089">
        <ele>1109.517</ele>
        <time>2014-05-31T13:28:50Z</time>
      </trkpt>
      <trkpt lat="42.39475" lon="2.46069">
        <ele>1107.163</ele>
        <time>2014-05-31T13:28:53Z</time>
      </trkpt>
      <trkpt lat="42.39463" lon="2.46054">
        <ele>1105.782</ele>
        <time>2014-05-31T13:28:55Z</time>
      </trkpt>
      <trkpt lat="42.39453" lon="2.46037">
        <ele>1104.788</ele>
        <time>2014-05-31T13:28:57Z</time>
      </trkpt>
      <trkpt lat="42.39444" lon="2.46009">
        <ele>1103.234</ele>
        <time>2014-05-31T13:29:00Z</time>
      </trkpt>
      <trkpt lat="42.39441" lon="2.46002">
        <ele>1102.814</ele>
        <time>2014-05-31T13:29:01Z</time>
      </trkpt>
      <trkpt lat="42.39419" lon="2.4601">
        <ele>1099.954</ele>
        <time>2014-05-31T13:29:07Z</time>
      </trkpt>
      <trkpt lat="42.39413" lon="2.46045">
        <ele>1097.009</ele>
        <time>2014-05-31T13:29:11Z</time>
      </trkpt>
      <trkpt lat="42.39409" lon="2.46062">
        <ele>1094.608</ele>
        <time>2014-05-31T13:29:14Z</time>
      </trkpt>
      <trkpt lat="42.39405" lon="2.46071">
        <ele>1091.755</ele>
        <time>2014-05-31T13:29:17Z</time>
      </trkpt>
      <trkpt lat="42.39403" lon="2.46073">
        <ele>1091.788</ele>
        <time>2014-05-31T13:29:18Z</time>
      </trkpt>
      <trkpt lat="42.39397" lon="2.46074">
        <ele>1090.81</ele>
        <time>2014-05-31T13:29:21Z</time>
      </trkpt>
      <trkpt lat="42.3939" lon="2.46068">
        <ele>1089.81</ele>
        <time>2014-05-31T13:29:25Z</time>
      </trkpt>
      <trkpt lat="42.39386" lon="2.46056">
        <ele>1090.396</ele>
        <time>2014-05-31T13:29:30Z</time>
      </trkpt>
      <trkpt lat="42.39371" lon="2.46036">
        <ele>1087.465</ele>
        <time>2014-05-31T13:29:43Z</time>
      </trkpt>
      <trkpt lat="42.39365" lon="2.46036">
        <ele>1085.971</ele>
        <time>2014-05-31T13:29:53Z</time>
      </trkpt>
      <trkpt lat="42.39357" lon="2.46041">
        <ele>1085.097</ele>
        <time>2014-05-31T13:30:07Z</time>
      </trkpt>
      <trkpt lat="42.39356" lon="2.46042">
        <ele>1085.054</ele>
        <time>2014-05-31T13:30:10Z</time>
      </trkpt>
      <trkpt lat="42.3935" lon="2.46046">
        <ele>1084.056</ele>
        <time>2014-05-31T13:30:13Z</time>
      </trkpt>
      <trkpt lat="42.39337" lon="2.46076">
        <ele>1080.711</ele>
        <time>2014-05-31T13:30:20Z</time>
      </trkpt>
      <trkpt lat="42.39338" lon="2.4608">
        <ele>1080.708</ele>
        <time>2014-05-31T13:30:21Z</time>
      </trkpt>
      <trkpt lat="42.39339" lon="2.46084">
        <ele>1079.719</ele>
        <time>2014-05-31T13:30:22Z</time>
      </trkpt>
      <trkpt lat="42.3934" lon="2.46092">
        <ele>1079.722</ele>
        <time>2014-05-31T13:30:32Z</time>
      </trkpt>
      <trkpt lat="42.3934" lon="2.4609">
        <ele>1079.754</ele>
        <time>2014-05-31T13:30:34Z</time>
      </trkpt>
      <trkpt lat="42.39336" lon="2.46074">
        <ele>1080.274</ele>
        <time>2014-05-31T13:30:47Z</time>
      </trkpt>
      <trkpt lat="42.39337" lon="2.46055">
        <ele>1081.16</ele>
        <time>2014-05-31T13:30:59Z</time>
      </trkpt>
      <trkpt lat="42.39334" lon="2.46052">
        <ele>1081.199</ele>
        <time>2014-05-31T13:31:12Z</time>
      </trkpt>
      <trkpt lat="42.39335" lon="2.46055">
        <ele>1082.175</ele>
        <time>2014-05-31T13:31:15Z</time>
      </trkpt>
      <trkpt lat="42.39335" lon="2.46063">
        <ele>1080.781</ele>
        <time>2014-05-31T13:31:19Z</time>
      </trkpt>
      <trkpt lat="42.39332" lon="2.46075">
        <ele>1080.796</ele>
        <time>2014-05-31T13:31:32Z</time>
      </trkpt>
      <trkpt lat="42.39333" lon="2.46078">
        <ele>1077.831</ele>
        <time>2014-05-31T13:31:45Z</time>
      </trkpt>
      <trkpt lat="42.39334" lon="2.4608">
        <ele>1078.724</ele>
        <time>2014-05-31T13:31:53Z</time>
      </trkpt>
      <trkpt lat="42.39347" lon="2.46127">
        <ele>1077.308</ele>
        <time>2014-05-31T13:32:04Z</time>
      </trkpt>
      <trkpt lat="42.39354" lon="2.46144">
        <ele>1076.883</ele>
        <time>2014-05-31T13:32:08Z</time>
      </trkpt>
      <trkpt lat="42.39368" lon="2.46177">
        <ele>1074.486</ele>
        <time>2014-05-31T13:32:17Z</time>
      </trkpt>
      <trkpt lat="42.39369" lon="2.46188">
        <ele>1073.018</ele>
        <time>2014-05-31T13:32:21Z</time>
      </trkpt>
      <trkpt lat="42.3938" lon="2.46235">
        <ele>1070.668</ele>
        <time>2014-05-31T13:32:34Z</time>
      </trkpt>
      <trkpt lat="42.39377" lon="2.46244">
        <ele>1068.684</ele>
        <time>2014-05-31T13:32:38Z</time>
      </trkpt>
      <trkpt lat="42.3938" lon="2.46247">
        <ele>1067.733</ele>
        <time>2014-05-31T13:32:48Z</time>
      </trkpt>
      <trkpt lat="42.3938" lon="2.46248">
        <ele>1067.289</ele>
        <time>2014-05-31T13:33:31Z</time>
      </trkpt>
      <trkpt lat="42.3938" lon="2.4625">
        <ele>1067.235</ele>
        <time>2014-05-31T13:34:01Z</time>
      </trkpt>
      <trkpt lat="42.39378" lon="2.46249">
        <ele>1066.286</ele>
        <time>2014-05-31T13:34:23Z</time>
      </trkpt>
      <trkpt lat="42.39378" lon="2.4625">
        <ele>1066.26</ele>
        <time>2014-05-31T13:35:00Z</time>
      </trkpt>
      <trkpt lat="42.39378" lon="2.46248">
        <ele>1067.726</ele>
        <time>2014-05-31T13:35:24Z</time>
      </trkpt>
      <trkpt lat="42.39378" lon="2.46243">
        <ele>1067.208</ele>
        <time>2014-05-31T13:35:27Z</time>
      </trkpt>
      <trkpt lat="42.39381" lon="2.46232">
        <ele>1071.552</ele>
        <time>2014-05-31T13:35:36Z</time>
      </trkpt>
      <trkpt lat="42.39379" lon="2.46224">
        <ele>1071.575</ele>
        <time>2014-05-31T13:35:49Z</time>
      </trkpt>
      <trkpt lat="42.3938" lon="2.46222">
        <ele>1072.027</ele>
        <time>2014-05-31T13:35:56Z</time>
      </trkpt>
      <trkpt lat="42.39374" lon="2.46205">
        <ele>1072.027</ele>
        <time>2014-05-31T13:36:10Z</time>
      </trkpt>
      <trkpt lat="42.39372" lon="2.46195">
        <ele>1073.433</ele>
        <time>2014-05-31T13:36:25Z</time>
      </trkpt>
      <trkpt lat="42.39375" lon="2.46197">
        <ele>1073.052</ele>
        <time>2014-05-31T13:36:32Z</time>
      </trkpt>
      <trkpt lat="42.39386" lon="2.46242">
        <ele>1071.558</ele>
        <time>2014-05-31T13:36:44Z</time>
      </trkpt>
      <trkpt lat="42.39397" lon="2.46287">
        <ele>1068.264</ele>
        <time>2014-05-31T13:36:53Z</time>
      </trkpt>
      <trkpt lat="42.394" lon="2.46301">
        <ele>1066.239</ele>
        <time>2014-05-31T13:36:57Z</time>
      </trkpt>
      <trkpt lat="42.39406" lon="2.4632">
        <ele>1063.401</ele>
        <time>2014-05-31T13:37:06Z</time>
      </trkpt>
      <trkpt lat="42.39407" lon="2.46324">
        <ele>1062.421</ele>
        <time>2014-05-31T13:37:14Z</time>
      </trkpt>
      <trkpt lat="42.39417" lon="2.4635">
        <ele>1060.008</ele>
        <time>2014-05-31T13:37:26Z</time>
      </trkpt>
      <trkpt lat="42.39423" lon="2.4637">
        <ele>1056.267</ele>
        <time>2014-05-31T13:37:32Z</time>
      </trkpt>
      <trkpt lat="42.39423" lon="2.46372">
        <ele>1056.29</ele>
        <time>2014-05-31T13:37:33Z</time>
      </trkpt>
      <trkpt lat="42.39426" lon="2.46399">
        <ele>1053.332</ele>
        <time>2014-05-31T13:37:42Z</time>
      </trkpt>
      <trkpt lat="42.39438" lon="2.46417">
        <ele>1049.992</ele>
        <time>2014-05-31T13:37:50Z</time>
      </trkpt>
      <trkpt lat="42.39448" lon="2.46421">
        <ele>1047.518</ele>
        <time>2014-05-31T13:37:55Z</time>
      </trkpt>
      <trkpt lat="42.39468" lon="2.46427">
        <ele>1044.147</ele>
        <time>2014-05-31T13:38:01Z</time>
      </trkpt>
      <trkpt lat="42.39471" lon="2.46434">
        <ele>1043.783</ele>
        <time>2014-05-31T13:38:04Z</time>
      </trkpt>
      <trkpt lat="42.39477" lon="2.46455">
        <ele>1041.779</ele>
        <time>2014-05-31T13:38:10Z</time>
      </trkpt>
      <trkpt lat="42.39488" lon="2.46478">
        <ele>1038.873</ele>
        <time>2014-05-31T13:38:17Z</time>
      </trkpt>
      <trkpt lat="42.39498" lon="2.46491">
        <ele>1036.485</ele>
        <time>2014-05-31T13:38:20Z</time>
      </trkpt>
      <trkpt lat="42.39512" lon="2.46511">
        <ele>1035.013</ele>
        <time>2014-05-31T13:38:23Z</time>
      </trkpt>
      <trkpt lat="42.39539" lon="2.46546">
        <ele>1033.108</ele>
        <time>2014-05-31T13:38:34Z</time>
      </trkpt>
      <trkpt lat="42.39551" lon="2.46543">
        <ele>1032.691</ele>
        <time>2014-05-31T13:38:39Z</time>
      </trkpt>
      <trkpt lat="42.3956" lon="2.46548">
        <ele>1032.134</ele>
        <time>2014-05-31T13:38:43Z</time>
      </trkpt>
      <trkpt lat="42.39576" lon="2.46558">
        <ele>1031.656</ele>
        <time>2014-05-31T13:38:52Z</time>
      </trkpt>
      <trkpt lat="42.39576" lon="2.46564">
        <ele>1030.216</ele>
        <time>2014-05-31T13:38:56Z</time>
      </trkpt>
      <trkpt lat="42.39563" lon="2.46562">
        <ele>1028.322</ele>
        <time>2014-05-31T13:39:01Z</time>
      </trkpt>
      <trkpt lat="42.39558" lon="2.46561">
        <ele>1026.341</ele>
        <time>2014-05-31T13:39:03Z</time>
      </trkpt>
      <trkpt lat="42.39543" lon="2.4657">
        <ele>1024.477</ele>
        <time>2014-05-31T13:39:12Z</time>
      </trkpt>
      <trkpt lat="42.39539" lon="2.46583">
        <ele>1023.543</ele>
        <time>2014-05-31T13:39:25Z</time>
      </trkpt>
      <trkpt lat="42.39538" lon="2.46588">
        <ele>1023.051</ele>
        <time>2014-05-31T13:39:43Z</time>
      </trkpt>
      <trkpt lat="42.3953" lon="2.46597">
        <ele>1021.501</ele>
        <time>2014-05-31T13:39:50Z</time>
      </trkpt>
      <trkpt lat="42.39513" lon="2.46617">
        <ele>1017.711</ele>
        <time>2014-05-31T13:39:55Z</time>
      </trkpt>
      <trkpt lat="42.39509" lon="2.46621">
        <ele>1017.208</ele>
        <time>2014-05-31T13:39:56Z</time>
      </trkpt>
      <trkpt lat="42.39493" lon="2.46646">
        <ele>1013.819</ele>
        <time>2014-05-31T13:40:01Z</time>
      </trkpt>
      <trkpt lat="42.395" lon="2.46644">
        <ele>1011.482</ele>
        <time>2014-05-31T13:40:06Z</time>
      </trkpt>
      <trkpt lat="42.39512" lon="2.46637">
        <ele>1010.034</ele>
        <time>2014-05-31T13:40:09Z</time>
      </trkpt>
      <trkpt lat="42.39518" lon="2.46643">
        <ele>1006.634</ele>
        <time>2014-05-31T13:40:14Z</time>
      </trkpt>
      <trkpt lat="42.39512" lon="2.46651">
        <ele>1006.23</ele>
        <time>2014-05-31T13:40:16Z</time>
      </trkpt>
      <trkpt lat="42.39496" lon="2.46669">
        <ele>1003.899</ele>
        <time>2014-05-31T13:40:20Z</time>
      </trkpt>
      <trkpt lat="42.39485" lon="2.46683">
        <ele>1000.935</ele>
        <time>2014-05-31T13:40:23Z</time>
      </trkpt>
      <trkpt lat="42.39473" lon="2.46698">
        <ele>997.571</ele>
        <time>2014-05-31T13:40:27Z</time>
      </trkpt>
      <trkpt lat="42.3946" lon="2.46709">
        <ele>996.144</ele>
        <time>2014-05-31T13:40:31Z</time>
      </trkpt>
      <trkpt lat="42.39446" lon="2.46717">
        <ele>994.605</ele>
        <time>2014-05-31T13:40:38Z</time>
      </trkpt>
      <trkpt lat="42.39433" lon="2.46709">
        <ele>991.715</ele>
        <time>2014-05-31T13:40:49Z</time>
      </trkpt>
      <trkpt lat="42.39433" lon="2.46709">
        <ele>992.708</ele>
        <time>2014-05-31T13:40:51Z</time>
      </trkpt>
      <trkpt lat="42.39431" lon="2.46709">
        <ele>992.798</ele>
        <time>2014-05-31T13:41:01Z</time>
      </trkpt>
      <trkpt lat="42.39428" lon="2.46708">
        <ele>992.771</ele>
        <time>2014-05-31T13:41:04Z</time>
      </trkpt>
      <trkpt lat="42.39426" lon="2.46711">
        <ele>991.773</ele>
        <time>2014-05-31T13:41:06Z</time>
      </trkpt>
      <trkpt lat="42.39427" lon="2.46713">
        <ele>991.793</ele>
        <time>2014-05-31T13:41:08Z</time>
      </trkpt>
      <trkpt lat="42.39434" lon="2.46733">
        <ele>989.369</ele>
        <time>2014-05-31T13:41:14Z</time>
      </trkpt>
      <trkpt lat="42.39438" lon="2.4674">
        <ele>988.418</ele>
        <time>2014-05-31T13:41:16Z</time>
      </trkpt>
      <trkpt lat="42.39445" lon="2.46748">
        <ele>986.964</ele>
        <time>2014-05-31T13:41:19Z</time>
      </trkpt>
      <trkpt lat="42.39459" lon="2.4675">
        <ele>983.69</ele>
        <time>2014-05-31T13:41:25Z</time>
      </trkpt>
      <trkpt lat="42.39466" lon="2.4675">
        <ele>982.117</ele>
        <time>2014-05-31T13:41:27Z</time>
      </trkpt>
      <trkpt lat="42.39478" lon="2.46746">
        <ele>979.787</ele>
        <time>2014-05-31T13:41:31Z</time>
      </trkpt>
      <trkpt lat="42.39502" lon="2.46738">
        <ele>977.315</ele>
        <time>2014-05-31T13:41:42Z</time>
      </trkpt>
      <trkpt lat="42.39506" lon="2.46738">
        <ele>971.508</ele>
        <time>2014-05-31T13:41:43Z</time>
      </trkpt>
      <trkpt lat="42.39538" lon="2.46747">
        <ele>974.025</ele>
        <time>2014-05-31T13:41:51Z</time>
      </trkpt>
      <trkpt lat="42.39543" lon="2.4675">
        <ele>974.448</ele>
        <time>2014-05-31T13:41:52Z</time>
      </trkpt>
      <trkpt lat="42.39563" lon="2.46775">
        <ele>974.45</ele>
        <time>2014-05-31T13:41:58Z</time>
      </trkpt>
      <trkpt lat="42.39584" lon="2.46798">
        <ele>974.06</ele>
        <time>2014-05-31T13:42:11Z</time>
      </trkpt>
      <trkpt lat="42.39595" lon="2.46802">
        <ele>974.086</ele>
        <time>2014-05-31T13:42:19Z</time>
      </trkpt>
      <trkpt lat="42.39599" lon="2.46805">
        <ele>974.455</ele>
        <time>2014-05-31T13:42:34Z</time>
      </trkpt>
      <trkpt lat="42.39596" lon="2.46802">
        <ele>974.011</ele>
        <time>2014-05-31T13:42:59Z</time>
      </trkpt>
      <trkpt lat="42.39598" lon="2.46805">
        <ele>974.947</ele>
        <time>2014-05-31T13:43:24Z</time>
      </trkpt>
      <trkpt lat="42.39602" lon="2.46807">
        <ele>974.082</ele>
        <time>2014-05-31T13:43:33Z</time>
      </trkpt>
      <trkpt lat="42.39609" lon="2.46812">
        <ele>974.443</ele>
        <time>2014-05-31T13:43:36Z</time>
      </trkpt>
      <trkpt lat="42.39619" lon="2.46819">
        <ele>972.517</ele>
        <time>2014-05-31T13:43:39Z</time>
      </trkpt>
      <trkpt lat="42.39635" lon="2.46826">
        <ele>968.708</ele>
        <time>2014-05-31T13:43:48Z</time>
      </trkpt>
      <trkpt lat="42.39642" lon="2.46837">
        <ele>967.252</ele>
        <time>2014-05-31T13:43:53Z</time>
      </trkpt>
      <trkpt lat="42.39659" lon="2.46846">
        <ele>964.345</ele>
        <time>2014-05-31T13:43:58Z</time>
      </trkpt>
      <trkpt lat="42.39674" lon="2.46843">
        <ele>962.447</ele>
        <time>2014-05-31T13:44:06Z</time>
      </trkpt>
      <trkpt lat="42.39695" lon="2.46835">
        <ele>959.597</ele>
        <time>2014-05-31T13:44:13Z</time>
      </trkpt>
      <trkpt lat="42.39712" lon="2.46837">
        <ele>958.613</ele>
        <time>2014-05-31T13:44:19Z</time>
      </trkpt>
      <trkpt lat="42.39736" lon="2.4685">
        <ele>954.732</ele>
        <time>2014-05-31T13:44:30Z</time>
      </trkpt>
      <trkpt lat="42.3975" lon="2.46857">
        <ele>953.348</ele>
        <time>2014-05-31T13:44:35Z</time>
      </trkpt>
      <trkpt lat="42.39768" lon="2.46861">
        <ele>949.464</ele>
        <time>2014-05-31T13:44:39Z</time>
      </trkpt>
      <trkpt lat="42.39779" lon="2.46866">
        <ele>948.558</ele>
        <time>2014-05-31T13:44:42Z</time>
      </trkpt>
      <trkpt lat="42.39786" lon="2.4687">
        <ele>948.052</ele>
        <time>2014-05-31T13:44:54Z</time>
      </trkpt>
      <trkpt lat="42.39787" lon="2.4687">
        <ele>948.517</ele>
        <time>2014-05-31T13:45:05Z</time>
      </trkpt>
      <trkpt lat="42.3979" lon="2.4687">
        <ele>948.008</ele>
        <time>2014-05-31T13:45:21Z</time>
      </trkpt>
      <trkpt lat="42.39789" lon="2.46869">
        <ele>948.019</ele>
        <time>2014-05-31T13:45:35Z</time>
      </trkpt>
      <trkpt lat="42.3979" lon="2.46871">
        <ele>948.572</ele>
        <time>2014-05-31T13:46:04Z</time>
      </trkpt>
      <trkpt lat="42.39791" lon="2.4687">
        <ele>948.554</ele>
        <time>2014-05-31T13:46:19Z</time>
      </trkpt>
      <trkpt lat="42.39808" lon="2.46883">
        <ele>945.694</ele>
        <time>2014-05-31T13:46:30Z</time>
      </trkpt>
      <trkpt lat="42.39833" lon="2.46895">
        <ele>942.29</ele>
        <time>2014-05-31T13:46:41Z</time>
      </trkpt>
      <trkpt lat="42.39835" lon="2.46897">
        <ele>942.219</ele>
        <time>2014-05-31T13:46:56Z</time>
      </trkpt>
      <trkpt lat="42.39842" lon="2.46907">
        <ele>939.315</ele>
        <time>2014-05-31T13:47:04Z</time>
      </trkpt>
      <trkpt lat="42.39847" lon="2.46906">
        <ele>938.971</ele>
        <time>2014-05-31T13:47:18Z</time>
      </trkpt>
      <trkpt lat="42.39846" lon="2.46909">
        <ele>938.965</ele>
        <time>2014-05-31T13:47:41Z</time>
      </trkpt>
      <trkpt lat="42.39845" lon="2.46904">
        <ele>939.868</ele>
        <time>2014-05-31T13:48:04Z</time>
      </trkpt>
      <trkpt lat="42.39834" lon="2.46895">
        <ele>941.814</ele>
        <time>2014-05-31T13:48:14Z</time>
      </trkpt>
      <trkpt lat="42.39815" lon="2.46886">
        <ele>943.708</ele>
        <time>2014-05-31T13:48:28Z</time>
      </trkpt>
      <trkpt lat="42.39802" lon="2.46879">
        <ele>946.18</ele>
        <time>2014-05-31T13:48:38Z</time>
      </trkpt>
      <trkpt lat="42.39795" lon="2.46871">
        <ele>947.573</ele>
        <time>2014-05-31T13:48:51Z</time>
      </trkpt>
      <trkpt lat="42.39789" lon="2.46866">
        <ele>948.055</ele>
        <time>2014-05-31T13:49:03Z</time>
      </trkpt>
      <trkpt lat="42.39784" lon="2.46864">
        <ele>949.025</ele>
        <time>2014-05-31T13:49:14Z</time>
      </trkpt>
      <trkpt lat="42.39765" lon="2.46856">
        <ele>949.931</ele>
        <time>2014-05-31T13:49:29Z</time>
      </trkpt>
      <trkpt lat="42.39754" lon="2.46852">
        <ele>951.83</ele>
        <time>2014-05-31T13:49:37Z</time>
      </trkpt>
      <trkpt lat="42.39749" lon="2.46851">
        <ele>953.386</ele>
        <time>2014-05-31T13:49:41Z</time>
      </trkpt>
      <trkpt lat="42.39729" lon="2.46841">
        <ele>956.212</ele>
        <time>2014-05-31T13:49:55Z</time>
      </trkpt>
      <trkpt lat="42.39717" lon="2.46833">
        <ele>958.158</ele>
        <time>2014-05-31T13:50:05Z</time>
      </trkpt>
      <trkpt lat="42.39711" lon="2.46841">
        <ele>957.652</ele>
        <time>2014-05-31T13:50:18Z</time>
      </trkpt>
      <trkpt lat="42.39709" lon="2.46851">
        <ele>954.717</ele>
        <time>2014-05-31T13:50:37Z</time>
      </trkpt>
      <trkpt lat="42.3971" lon="2.4685">
        <ele>954.708</ele>
        <time>2014-05-31T13:50:56Z</time>
      </trkpt>
      <trkpt lat="42.39715" lon="2.46851">
        <ele>955.219</ele>
        <time>2014-05-31T13:51:21Z</time>
      </trkpt>
      <trkpt lat="42.39725" lon="2.46852">
        <ele>952.832</ele>
        <time>2014-05-31T13:51:30Z</time>
      </trkpt>
      <trkpt lat="42.39748" lon="2.46865">
        <ele>949.084</ele>
        <time>2014-05-31T13:51:43Z</time>
      </trkpt>
      <trkpt lat="42.39753" lon="2.46868">
        <ele>947.534</ele>
        <time>2014-05-31T13:51:46Z</time>
      </trkpt>
      <trkpt lat="42.39768" lon="2.46869">
        <ele>944.24</ele>
        <time>2014-05-31T13:51:53Z</time>
      </trkpt>
      <trkpt lat="42.39771" lon="2.4687">
        <ele>944.289</ele>
        <time>2014-05-31T13:51:54Z</time>
      </trkpt>
      <trkpt lat="42.39781" lon="2.46877">
        <ele>941.335</ele>
        <time>2014-05-31T13:51:59Z</time>
      </trkpt>
      <trkpt lat="42.39795" lon="2.4689">
        <ele>940.371</ele>
        <time>2014-05-31T13:52:08Z</time>
      </trkpt>
      <trkpt lat="42.39799" lon="2.46891">
        <ele>939.842</ele>
        <time>2014-05-31T13:52:10Z</time>
      </trkpt>
      <trkpt lat="42.39819" lon="2.469">
        <ele>936.922</ele>
        <time>2014-05-31T13:52:17Z</time>
      </trkpt>
      <trkpt lat="42.39823" lon="2.46903">
        <ele>936.514</ele>
        <time>2014-05-31T13:52:18Z</time>
      </trkpt>
      <trkpt lat="42.39844" lon="2.46921">
        <ele>933.108</ele>
        <time>2014-05-31T13:52:27Z</time>
      </trkpt>
      <trkpt lat="42.3986" lon="2.4694">
        <ele>930.268</ele>
        <time>2014-05-31T13:52:35Z</time>
      </trkpt>
      <trkpt lat="42.39864" lon="2.46944">
        <ele>929.211</ele>
        <time>2014-05-31T13:52:37Z</time>
      </trkpt>
      <trkpt lat="42.39882" lon="2.4695">
        <ele>926.813</ele>
        <time>2014-05-31T13:52:44Z</time>
      </trkpt>
      <trkpt lat="42.39887" lon="2.46947">
        <ele>927.353</ele>
        <time>2014-05-31T13:52:46Z</time>
      </trkpt>
      <trkpt lat="42.39898" lon="2.46942">
        <ele>927.349</ele>
        <time>2014-05-31T13:52:52Z</time>
      </trkpt>
      <trkpt lat="42.39917" lon="2.46946">
        <ele>925.478</ele>
        <time>2014-05-31T13:52:59Z</time>
      </trkpt>
      <trkpt lat="42.39937" lon="2.46971">
        <ele>923.034</ele>
        <time>2014-05-31T13:53:11Z</time>
      </trkpt>
      <trkpt lat="42.39947" lon="2.46985">
        <ele>922.01</ele>
        <time>2014-05-31T13:53:25Z</time>
      </trkpt>
      <trkpt lat="42.39949" lon="2.46989">
        <ele>920.638</ele>
        <time>2014-05-31T13:53:26Z</time>
      </trkpt>
      <trkpt lat="42.39957" lon="2.47009">
        <ele>918.77</ele>
        <time>2014-05-31T13:53:30Z</time>
      </trkpt>
      <trkpt lat="42.39964" lon="2.47032">
        <ele>914.817</ele>
        <time>2014-05-31T13:53:36Z</time>
      </trkpt>
      <trkpt lat="42.39975" lon="2.47077">
        <ele>911.508</ele>
        <time>2014-05-31T13:53:47Z</time>
      </trkpt>
      <trkpt lat="42.39982" lon="2.47114">
        <ele>910.087</ele>
        <time>2014-05-31T13:53:59Z</time>
      </trkpt>
      <trkpt lat="42.39983" lon="2.47123">
        <ele>910.03</ele>
        <time>2014-05-31T13:54:02Z</time>
      </trkpt>
      <trkpt lat="42.39986" lon="2.47134">
        <ele>909.582</ele>
        <time>2014-05-31T13:54:06Z</time>
      </trkpt>
      <trkpt lat="42.39987" lon="2.47137">
        <ele>909.592</ele>
        <time>2014-05-31T13:54:07Z</time>
      </trkpt>
      <trkpt lat="42.39995" lon="2.47165">
        <ele>907.678</ele>
        <time>2014-05-31T13:54:18Z</time>
      </trkpt>
      <trkpt lat="42.39995" lon="2.47169">
        <ele>908.677</ele>
        <time>2014-05-31T13:54:26Z</time>
      </trkpt>
      <trkpt lat="42.40004" lon="2.47186">
        <ele>907.653</ele>
        <time>2014-05-31T13:54:32Z</time>
      </trkpt>
      <trkpt lat="42.40011" lon="2.47195">
        <ele>907.189</ele>
        <time>2014-05-31T13:54:41Z</time>
      </trkpt>
      <trkpt lat="42.40014" lon="2.472">
        <ele>907.191</ele>
        <time>2014-05-31T13:54:45Z</time>
      </trkpt>
      <trkpt lat="42.4002" lon="2.4721">
        <ele>906.281</ele>
        <time>2014-05-31T13:54:49Z</time>
      </trkpt>
      <trkpt lat="42.40039" lon="2.47238">
        <ele>902.819</ele>
        <time>2014-05-31T13:54:58Z</time>
      </trkpt>
      <trkpt lat="42.40057" lon="2.47268">
        <ele>899.508</ele>
        <time>2014-05-31T13:55:06Z</time>
      </trkpt>
      <trkpt lat="42.40069" lon="2.47289">
        <ele>897.063</ele>
        <time>2014-05-31T13:55:15Z</time>
      </trkpt>
      <trkpt lat="42.40077" lon="2.47303">
        <ele>896.116</ele>
        <time>2014-05-31T13:55:29Z</time>
      </trkpt>
      <trkpt lat="42.40082" lon="2.4733">
        <ele>893.718</ele>
        <time>2014-05-31T13:55:35Z</time>
      </trkpt>
      <trkpt lat="42.40083" lon="2.4735">
        <ele>892.278</ele>
        <time>2014-05-31T13:55:40Z</time>
      </trkpt>
      <trkpt lat="42.40084" lon="2.47362">
        <ele>890.374</ele>
        <time>2014-05-31T13:55:42Z</time>
      </trkpt>
      <trkpt lat="42.40084" lon="2.4737">
        <ele>888.953</ele>
        <time>2014-05-31T13:55:43Z</time>
      </trkpt>
      <trkpt lat="42.40085" lon="2.4738">
        <ele>888.949</ele>
        <time>2014-05-31T13:55:44Z</time>
      </trkpt>
      <trkpt lat="42.40088" lon="2.474">
        <ele>887.485</ele>
        <time>2014-05-31T13:55:46Z</time>
      </trkpt>
      <trkpt lat="42.40097" lon="2.47426">
        <ele>884.531</ele>
        <time>2014-05-31T13:55:50Z</time>
      </trkpt>
      <trkpt lat="42.40107" lon="2.4745">
        <ele>881.761</ele>
        <time>2014-05-31T13:55:54Z</time>
      </trkpt>
      <trkpt lat="42.40097" lon="2.47495">
        <ele>875.907</ele>
        <time>2014-05-31T13:56:00Z</time>
      </trkpt>
      <trkpt lat="42.40111" lon="2.47514">
        <ele>872.508</ele>
        <time>2014-05-31T13:56:05Z</time>
      </trkpt>
      <trkpt lat="42.40104" lon="2.47529">
        <ele>870.617</ele>
        <time>2014-05-31T13:56:08Z</time>
      </trkpt>
      <trkpt lat="42.40087" lon="2.47525">
        <ele>868.27</ele>
        <time>2014-05-31T13:56:12Z</time>
      </trkpt>
      <trkpt lat="42.40071" lon="2.47509">
        <ele>866.312</ele>
        <time>2014-05-31T13:56:15Z</time>
      </trkpt>
      <trkpt lat="42.40057" lon="2.47487">
        <ele>862.912</ele>
        <time>2014-05-31T13:56:18Z</time>
      </trkpt>
      <trkpt lat="42.40042" lon="2.47445">
        <ele>860.068</ele>
        <time>2014-05-31T13:56:23Z</time>
      </trkpt>
      <trkpt lat="42.40038" lon="2.47431">
        <ele>859.157</ele>
        <time>2014-05-31T13:56:25Z</time>
      </trkpt>
      <trkpt lat="42.40035" lon="2.47439">
        <ele>856.283</ele>
        <time>2014-05-31T13:56:29Z</time>
      </trkpt>
      <trkpt lat="42.40037" lon="2.47449">
        <ele>855.299</ele>
        <time>2014-05-31T13:56:31Z</time>
      </trkpt>
      <trkpt lat="42.40043" lon="2.47486">
        <ele>853.398</ele>
        <time>2014-05-31T13:56:36Z</time>
      </trkpt>
      <trkpt lat="42.40047" lon="2.47525">
        <ele>849.515</ele>
        <time>2014-05-31T13:56:40Z</time>
      </trkpt>
      <trkpt lat="42.40049" lon="2.4755">
        <ele>845.626</ele>
        <time>2014-05-31T13:56:43Z</time>
      </trkpt>
      <trkpt lat="42.4005" lon="2.47557">
        <ele>845.108</ele>
        <time>2014-05-31T13:56:44Z</time>
      </trkpt>
      <trkpt lat="42.40054" lon="2.47573">
        <ele>843.743</ele>
        <time>2014-05-31T13:56:46Z</time>
      </trkpt>
      <trkpt lat="42.40057" lon="2.47587">
        <ele>841.846</ele>
        <time>2014-05-31T13:56:48Z</time>
      </trkpt>
      <trkpt lat="42.40062" lon="2.47602">
        <ele>840.378</ele>
        <time>2014-05-31T13:56:50Z</time>
      </trkpt>
      <trkpt lat="42.4007" lon="2.47622">
        <ele>837.518</ele>
        <time>2014-05-31T13:56:53Z</time>
      </trkpt>
      <trkpt lat="42.40074" lon="2.47642">
        <ele>835.064</ele>
        <time>2014-05-31T13:56:56Z</time>
      </trkpt>
      <trkpt lat="42.40073" lon="2.47659">
        <ele>832.633</ele>
        <time>2014-05-31T13:56:59Z</time>
      </trkpt>
      <trkpt lat="42.40073" lon="2.47687">
        <ele>830.269</ele>
        <time>2014-05-31T13:57:03Z</time>
      </trkpt>
      <trkpt lat="42.40074" lon="2.47699">
        <ele>828.875</ele>
        <time>2014-05-31T13:57:05Z</time>
      </trkpt>
      <trkpt lat="42.40085" lon="2.47728">
        <ele>825.096</ele>
        <time>2014-05-31T13:57:12Z</time>
      </trkpt>
      <trkpt lat="42.4009" lon="2.47747">
        <ele>823.031</ele>
        <time>2014-05-31T13:57:15Z</time>
      </trkpt>
      <trkpt lat="42.40096" lon="2.4776">
        <ele>820.624</ele>
        <time>2014-05-31T13:57:24Z</time>
      </trkpt>
      <trkpt lat="42.40097" lon="2.47762">
        <ele>820.608</ele>
        <time>2014-05-31T13:57:53Z</time>
      </trkpt>
      <trkpt lat="42.40098" lon="2.47766">
        <ele>821.143</ele>
        <time>2014-05-31T13:58:27Z</time>
      </trkpt>
      <trkpt lat="42.40102" lon="2.47773">
        <ele>820.646</ele>
        <time>2014-05-31T13:59:00Z</time>
      </trkpt>
      <trkpt lat="42.40119" lon="2.47795">
        <ele>817.798</ele>
        <time>2014-05-31T13:59:09Z</time>
      </trkpt>
      <trkpt lat="42.40122" lon="2.47798">
        <ele>816.858</ele>
        <time>2014-05-31T13:59:10Z</time>
      </trkpt>
      <trkpt lat="42.40108" lon="2.47816">
        <ele>813.964</ele>
        <time>2014-05-31T13:59:16Z</time>
      </trkpt>
      <trkpt lat="42.40084" lon="2.47814">
        <ele>810.543</ele>
        <time>2014-05-31T13:59:23Z</time>
      </trkpt>
      <trkpt lat="42.40074" lon="2.47814">
        <ele>809.179</ele>
        <time>2014-05-31T13:59:25Z</time>
      </trkpt>
      <trkpt lat="42.40053" lon="2.47799">
        <ele>806.725</ele>
        <time>2014-05-31T13:59:30Z</time>
      </trkpt>
      <trkpt lat="42.40044" lon="2.47807">
        <ele>802.832</ele>
        <time>2014-05-31T13:59:37Z</time>
      </trkpt>
      <trkpt lat="42.40055" lon="2.47832">
        <ele>799.092</ele>
        <time>2014-05-31T13:59:42Z</time>
      </trkpt>
      <trkpt lat="42.40065" lon="2.47849">
        <ele>796.611</ele>
        <time>2014-05-31T13:59:45Z</time>
      </trkpt>
      <trkpt lat="42.40072" lon="2.47861">
        <ele>794.708</ele>
        <time>2014-05-31T13:59:47Z</time>
      </trkpt>
      <trkpt lat="42.4009" lon="2.47886">
        <ele>789.967</ele>
        <time>2014-05-31T13:59:55Z</time>
      </trkpt>
      <trkpt lat="42.40103" lon="2.479">
        <ele>786.57</ele>
        <time>2014-05-31T14:00:01Z</time>
      </trkpt>
      <trkpt lat="42.40127" lon="2.4791">
        <ele>783.112</ele>
        <time>2014-05-31T14:00:12Z</time>
      </trkpt>
      <trkpt lat="42.40128" lon="2.4791">
        <ele>782.742</ele>
        <time>2014-05-31T14:00:15Z</time>
      </trkpt>
      <trkpt lat="42.4013" lon="2.47917">
        <ele>781.718</ele>
        <time>2014-05-31T14:00:24Z</time>
      </trkpt>
      <trkpt lat="42.40129" lon="2.47919">
        <ele>781.247</ele>
        <time>2014-05-31T14:00:27Z</time>
      </trkpt>
      <trkpt lat="42.40133" lon="2.47921">
        <ele>780.723</ele>
        <time>2014-05-31T14:00:30Z</time>
      </trkpt>
      <trkpt lat="42.4014" lon="2.47914">
        <ele>778.379</ele>
        <time>2014-05-31T14:00:36Z</time>
      </trkpt>
      <trkpt lat="42.40154" lon="2.47905">
        <ele>775.038</ele>
        <time>2014-05-31T14:00:45Z</time>
      </trkpt>
      <trkpt lat="42.40159" lon="2.479">
        <ele>773.57</ele>
        <time>2014-05-31T14:00:48Z</time>
      </trkpt>
      <trkpt lat="42.40166" lon="2.4789">
        <ele>771.617</ele>
        <time>2014-05-31T14:00:53Z</time>
      </trkpt>
      <trkpt lat="42.4017" lon="2.47886">
        <ele>770.608</ele>
        <time>2014-05-31T14:00:55Z</time>
      </trkpt>
      <trkpt lat="42.40179" lon="2.47876">
        <ele>766.857</ele>
        <time>2014-05-31T14:00:59Z</time>
      </trkpt>
      <trkpt lat="42.40181" lon="2.47874">
        <ele>766.36</ele>
        <time>2014-05-31T14:01:00Z</time>
      </trkpt>
      <trkpt lat="42.40191" lon="2.47867">
        <ele>763.922</ele>
        <time>2014-05-31T14:01:03Z</time>
      </trkpt>
      <trkpt lat="42.40213" lon="2.47856">
        <ele>760.112</ele>
        <time>2014-05-31T14:01:08Z</time>
      </trkpt>
      <trkpt lat="42.40223" lon="2.47851">
        <ele>758.698</ele>
        <time>2014-05-31T14:01:11Z</time>
      </trkpt>
      <trkpt lat="42.40238" lon="2.47843">
        <ele>756.737</ele>
        <time>2014-05-31T14:01:18Z</time>
      </trkpt>
      <trkpt lat="42.40247" lon="2.47839">
        <ele>755.243</ele>
        <time>2014-05-31T14:01:29Z</time>
      </trkpt>
      <trkpt lat="42.40248" lon="2.47837">
        <ele>755.279</ele>
        <time>2014-05-31T14:01:42Z</time>
      </trkpt>
      <trkpt lat="42.4026" lon="2.47821">
        <ele>754.358</ele>
        <time>2014-05-31T14:01:50Z</time>
      </trkpt>
      <trkpt lat="42.40283" lon="2.478">
        <ele>749.552</ele>
        <time>2014-05-31T14:01:56Z</time>
      </trkpt>
      <trkpt lat="42.40297" lon="2.47796">
        <ele>746.117</ele>
        <time>2014-05-31T14:02:00Z</time>
      </trkpt>
      <trkpt lat="42.40307" lon="2.47798">
        <ele>742.308</ele>
        <time>2014-05-31T14:02:05Z</time>
      </trkpt>
      <trkpt lat="42.40309" lon="2.47798">
        <ele>742.369</ele>
        <time>2014-05-31T14:02:06Z</time>
      </trkpt>
      <trkpt lat="42.4031" lon="2.47798">
        <ele>741.372</ele>
        <time>2014-05-31T14:02:08Z</time>
      </trkpt>
      <trkpt lat="42.403" lon="2.47802">
        <ele>742.364</ele>
        <time>2014-05-31T14:02:17Z</time>
      </trkpt>
      <trkpt lat="42.40297" lon="2.47803">
        <ele>742.824</ele>
        <time>2014-05-31T14:02:19Z</time>
      </trkpt>
      <trkpt lat="42.40291" lon="2.47807">
        <ele>743.29</ele>
        <time>2014-05-31T14:02:28Z</time>
      </trkpt>
      <trkpt lat="42.40273" lon="2.47822">
        <ele>744.749</ele>
        <time>2014-05-31T14:02:42Z</time>
      </trkpt>
      <trkpt lat="42.40267" lon="2.47834">
        <ele>744.755</ele>
        <time>2014-05-31T14:02:48Z</time>
      </trkpt>
      <trkpt lat="42.40237" lon="2.47862">
        <ele>747.631</ele>
        <time>2014-05-31T14:03:05Z</time>
      </trkpt>
      <trkpt lat="42.40217" lon="2.47904">
        <ele>747.697</ele>
        <time>2014-05-31T14:03:18Z</time>
      </trkpt>
      <trkpt lat="42.40212" lon="2.47945">
        <ele>747.623</ele>
        <time>2014-05-31T14:03:30Z</time>
      </trkpt>
      <trkpt lat="42.40217" lon="2.4795">
        <ele>747.625</ele>
        <time>2014-05-31T14:03:32Z</time>
      </trkpt>
      <trkpt lat="42.40273" lon="2.47964">
        <ele>747.108</ele>
        <time>2014-05-31T14:03:47Z</time>
      </trkpt>
      <trkpt lat="42.40299" lon="2.47971">
        <ele>748.543</ele>
        <time>2014-05-31T14:03:54Z</time>
      </trkpt>
    </trkseg>
  </trk>
</gpx>